Club Alas Capilla
.
Punto de Suelta: Fresnillo, Zac. Distancia: 0.00
Fecha y Hora de Suelta: 01/11/2009 07:30:00 a.m. Nmero de Palomas: 909
Condiciones de Suelta: Despejado sin viento Condiciones de Llegada: Despejado con viento cruzado de 10 km/Hr.
No. Competidor Localidad Nr. Pas Ao Sexo Distancia Llegada Velocidad Puntos
1 Enrique Jimenez . 74967 FMC 09 H 264342.03 01-11-2009 10:31:37 1455.4943 1455.4943
2 Raul Ascencio . 77777 FMC 09 H 264720.9 01-11-2009 10:32:19 1451.9841 1451.9841
3 Adrian Casillas . 78245 FMC 09 H 264762.72 01-11-2009 10:34:13 1437.2354 1437.2354
4 Jorge Casillas . 77164 FMC 09 M 264459.18 01-11-2009 10:34:16 1435.1982 1435.1982
5 Mina Vieja . 80041 FMC 09 H 264297.95 01-11-2009 10:34:15 1434.4529 1434.4529
6 Jose Carlos y Lalo . 76304 FMC 09 H 264416.48 01-11-2009 10:34:27 1433.5401 1433.5401
7 Adrian Casillas . 78191 FMC 09 H 264762.72 01-11-2009 10:34:42 1433.4744 1433.4744
8 Adrian Casillas . 78085 FMC 09 H 264762.72 01-11-2009 10:34:44 1433.2157 1433.2157
9 Raul Ascencio . 77739 FMC 09 H 264720.9 01-11-2009 10:34:45 1432.8601 1432.8601
10 Adrian Casillas . 78196 FMC 09 H 264762.72 01-11-2009 10:34:47 1432.8279 1432.8279
11 Jose A. Paredes . 74007 FMC 09 H 264078.72 01-11-2009 10:34:20 1432.6151 1432.6151
12 Juan Fco. Arias . 81343 FMC 09 H 264520.62 01-11-2009 10:34:45 1431.7760 1431.7760
13 Sergio Aceves . 80270 FMC 09 M 264578.06 01-11-2009 10:34:48 1431.6995 1431.6995
14 Ignacio Barba . 75426 FMC 09 H 264575.24 01-11-2009 10:34:51 1431.2969 1431.2969
15 Cleofas Casillas . 76220 FMC 09 H 264317.16 01-11-2009 10:34:41 1431.1912 1431.1912
16 Cleofas Casillas . 76219 FMC 09 H 264317.16 01-11-2009 10:34:42 1431.0620 1431.0620
17 Cleofas Casillas . 76254 FMC 09 H 264317.16 01-11-2009 10:34:42 1431.0620 1431.0620
18 Sergio Aceves . 74747 FMC 09 M 264578.06 01-11-2009 10:34:53 1431.0541 1431.0541
19 Ignacio Barba . 75427 FMC 09 H 264575.24 01-11-2009 10:34:53 1431.0389 1431.0389
20 Ruben De La Torre . 134811 FMC 09 H 264441.54 01-11-2009 10:34:48 1430.9607 1430.9607
21 Cleofas Casillas . 76015 FMC 09 H 264317.16 01-11-2009 10:34:44 1430.8038 1430.8038
22 Jorge Casillas . 77107 FMC 09 H 264459.18 01-11-2009 10:34:51 1430.6691 1430.6691
23 Enrique Jimenez . 74981 FMC 09 H 264342.03 01-11-2009 10:34:47 1430.5513 1430.5513
24 Adrian Casillas . 78293 FMC 09 H 264762.72 01-11-2009 10:35:05 1430.5055 1430.5055
25 Jose Carlos y Lalo . 76376 FMC 09 M 264416.48 01-11-2009 10:34:51 1430.4381 1430.4381
26 Jorge Casillas . 77074 FMC 09 H 264459.18 01-11-2009 10:34:54 1430.2822 1430.2822
27 Jorge Casillas . 77105 FMC 09 H 264459.18 01-11-2009 10:34:55 1430.1533 1430.1533
28 Jose Carlos y Lalo . 76308 FMC 09 M 264416.48 01-11-2009 10:34:58 1429.5358 1429.5358
29 Ignacio Barba . 80019 FMC 09 M 264575.24 01-11-2009 10:35:07 1429.2351 1429.2351
30 Cleofas Casillas . 76218 FMC 09 H 264317.16 01-11-2009 10:34:57 1429.1277 1429.1277
31 Jorge Casillas . 77097 FMC 09 H 264459.18 01-11-2009 10:35:04 1428.9941 1428.9941
32 Jose Carlos y Lalo . 78168 FMC 09 H 264416.48 01-11-2009 10:35:04 1428.7634 1428.7634
33 Jorge Casillas . 77044 FMC 09 H 264459.18 01-11-2009 10:35:06 1428.7368 1428.7368
34 PALOMAR GERO . 74638 FMC 09 H 264568.25 01-11-2009 10:35:11 1428.6828 1428.6828
35 Jorge Casillas . 77067 FMC 09 H 264459.18 01-11-2009 10:35:07 1428.6082 1428.6082
36 Jorge Casillas . 77010 FMC 09 H 264459.18 01-11-2009 10:35:09 1428.3510 1428.3510
37 Jorge Casillas . 15619 FMC 09 H 264459.18 01-11-2009 10:35:11 1428.0939 1428.0939
38 Adrian Casillas . 78012 FMC 09 H 264762.72 01-11-2009 10:35:26 1427.8054 1427.8054
39 Adrian Casillas . 78100 FMC 09 H 264762.72 01-11-2009 10:35:28 1427.5488 1427.5488
40 Sergio Aceves . 80333 FMC 09 H 264578.06 01-11-2009 10:35:23 1427.1944 1427.1944
41 Cleofas Casillas . 76100 FMC 09 H 264317.16 01-11-2009 10:35:14 1426.9417 1426.9417
42 PALOMAR GERO . 74681 FMC 09 H 264568.25 01-11-2009 10:35:25 1426.8849 1426.8849
43 Jose Carlos y Lalo . 77130 FMC 09 M 264416.48 01-11-2009 10:35:24 1426.1946 1426.1946
44 Raul Ascencio . 77753 FMC 09 H 264720.9 01-11-2009 10:35:38 1426.0418 1426.0418
45 Jose A. Paredes . 74064 FMC 09 H 264078.72 01-11-2009 10:35:12 1425.9110 1425.9110
46 Ignacio Navarro . 79151 FMC 09 H 264373.12 01-11-2009 10:35:25 1425.8326 1425.8326
47 Sergio Aceves . 80061 FMC 09 M 264578.06 01-11-2009 10:35:34 1425.7844 1425.7844
48 L Ernesto Castellano . 75161 FMC 09 H 264744.18 01-11-2009 10:35:42 1425.6553 1425.6553
49 Mina Vieja . 74526 FMC 09 H 264297.95 01-11-2009 10:35:24 1425.5553 1425.5553
50 Fco. Javier Aceves . 84181 FMC 09 H 264632.95 01-11-2009 10:35:41 1425.1842 1425.1842
51 Fco. Javier Aceves . 84129 FMC 09 H 264632.95 01-11-2009 10:35:44 1424.8005 1424.8005
52 Jorge Casillas . 77026 FMC 09 H 264459.18 01-11-2009 10:35:40 1424.3762 1424.3762
53 Sergio Aceves . 74775 FMC 09 H 264578.06 01-11-2009 10:35:51 1423.6108 1423.6108
54 Jorge Casillas . 85223 FMC 09 H 264459.18 01-11-2009 10:35:48 1423.3540 1423.3540
55 Fco. Javier Aceves . 84244 FMC 09 M 264632.95 01-11-2009 10:35:56 1423.2679 1423.2679
56 Jorge Casillas . 20081 FMC 09 H 264459.18 01-11-2009 10:35:50 1423.0987 1423.0987
57 Juan Fco. Arias . 81349 FMC 09 H 264520.62 01-11-2009 10:35:53 1423.0465 1423.0465
58 Jose Carlos y Lalo . 76330 FMC 09 M 264416.48 01-11-2009 10:35:49 1422.9966 1422.9966
59 Adrian Casillas . 78229 FMC 09 H 264762.72 01-11-2009 10:36:04 1422.9455 1422.9455
60 Raul Ascencio . 77725 FMC 09 H 264720.9 01-11-2009 10:36:03 1422.8482 1422.8482
61 Jorge Casillas . 77265 FMC 09 H 264459.18 01-11-2009 10:35:57 1422.2059 1422.2059
62 Cleofas Casillas . 76379 FMC 09 H 264317.16 01-11-2009 10:35:52 1422.0794 1422.0794
63 Enrique Jimenez . 74979 FMC 09 H 264342.03 01-11-2009 10:35:56 1421.7033 1421.7033
64 Palomar San Pedro . 83687 FMC 09 H 264387.59 01-11-2009 10:35:59 1421.5660 1421.5660
65 Mina Vieja . 74427 FMC 09 M 264297.95 01-11-2009 10:36:01 1420.8294 1420.8294
66 L Ernesto Castellano . 75222 FMC 09 H 264744.18 01-11-2009 10:36:22 1420.5554 1420.5554
67 Fco. Javier Aceves . 84164 FMC 09 M 264632.95 01-11-2009 10:36:19 1420.3397 1420.3397
68 Jorge Casillas . 85200 FMC 09 H 264459.18 01-11-2009 10:36:12 1420.2963 1420.2963
69 Jorge Casillas . 77034 FMC 09 H 264459.18 01-11-2009 10:36:16 1419.7880 1419.7880
70 Cleofas Casillas . 76466 FMC 09 H 264317.16 01-11-2009 10:36:12 1419.5336 1419.5336
71 Cleofas Casillas . 80165 FMC 09 H 264317.16 01-11-2009 10:36:14 1419.2795 1419.2795
72 Fco. Javier Aceves . 80283 FMC 09 H 264632.95 01-11-2009 10:36:28 1419.1971 1419.1971
73 Juan Fco. Arias . 80014 FMC 09 H 264520.62 01-11-2009 10:36:28 1418.5947 1418.5947
74 Sergio Aceves . 74725 FMC 09 M 264578.06 01-11-2009 10:36:34 1418.1422 1418.1422
75 Jose A. Paredes . 74131 FMC 09 H 264078.72 01-11-2009 10:36:17 1417.6186 1417.6186
76 Juan Carlos Aceves . 75996 FMC 09 M 264575.11 01-11-2009 10:36:46 1416.6078 1416.6078
77 Juan Carlos Aceves . 133929 FMC 09 H 264575.11 01-11-2009 10:36:47 1416.4814 1416.4814
78 Cleofas Casillas . 76117 FMC 09 H 264317.16 01-11-2009 10:36:40 1415.9848 1415.9848
79 Enrique Jimenez . 74352 FMC 09 H 264342.03 01-11-2009 10:36:42 1415.8652 1415.8652
80 Cleofas Casillas . 76109 FMC 09 H 264317.16 01-11-2009 10:36:41 1415.8584 1415.8584
81 Ignacio Barba . 75464 FMC 09 M 264575.24 01-11-2009 10:36:52 1415.8504 1415.8504
82 Ruben De La Torre . 75722 FMC 09 M 264441.54 01-11-2009 10:36:47 1415.7663 1415.7663
83 Jose A. Paredes . 74150 FMC 09 H 264078.72 01-11-2009 10:36:39 1414.8338 1414.8338
84 Cleofas Casillas . 76038 FMC 09 H 264317.16 01-11-2009 10:36:54 1414.2170 1414.2170
85 Palomar San Pedro . 83657 FMC 09 H 264387.59 01-11-2009 10:36:57 1414.2155 1414.2155
86 Jose A. Paredes . 74155 FMC 09 H 264078.72 01-11-2009 10:36:48 1413.6976 1413.6976
87 L Ernesto Castellano . 75165 FMC 09 H 264744.18 01-11-2009 10:37:22 1412.9737 1412.9737
88 Palomar San Pedro . 83627 FMC 09 M 264387.59 01-11-2009 10:37:09 1412.7042 1412.7042
89 Jose Carlos y Lalo . 76316 FMC 09 H 264416.48 01-11-2009 10:37:11 1412.6070 1412.6070
90 Ruben De La Torre . 75759 FMC 09 H 264441.54 01-11-2009 10:37:14 1412.3636 1412.3636
91 Raul Ascencio . 77764 FMC 09 H 264720.9 01-11-2009 10:37:31 1411.7193 1411.7193
92 Adrian Casillas . 78167 FMC 09 H 264762.72 01-11-2009 10:37:35 1411.4405 1411.4405
93 Ignacio Barba . 75409 FMC 09 M 264575.24 01-11-2009 10:37:28 1411.3188 1411.3188
94 Mina Vieja . 74592 FMC 09 M 264297.95 01-11-2009 10:37:17 1411.2198 1411.2198
95 Raul Ascencio . 77730 FMC 09 H 264720.9 01-11-2009 10:37:35 1411.2176 1411.2176
96 Sergio Aceves . 74765 FMC 09 H 264578.06 01-11-2009 10:37:34 1410.5814 1410.5814
97 Enrique Jimenez . 74975 FMC 09 H 264342.03 01-11-2009 10:37:24 1410.5765 1410.5765
98 Adrian Casillas . 78193 FMC 09 H 264762.72 01-11-2009 10:37:42 1410.5632 1410.5632
99 Cleofas Casillas . 76278 FMC 09 H 264317.16 01-11-2009 10:37:26 1410.1929 1410.1929
100 Ignacio Navarro . 79145 FMC 09 H 264373.12 01-11-2009 10:37:29 1410.1153 1410.1153
101 Raul Ascencio . 77750 FMC 09 H 264720.9 01-11-2009 10:37:46 1409.8397 1409.8397
102 Cleofas Casillas . 76099 FMC 09 H 264317.16 01-11-2009 10:37:31 1409.5662 1409.5662
103 Ignacio Navarro . 79041 FMC 09 H 264373.12 01-11-2009 10:37:34 1409.4888 1409.4888
104 Jose A. Paredes . 74057 FMC 09 H 264078.72 01-11-2009 10:37:23 1409.2967 1409.2967
105 Jose A. Paredes . 74128 FMC 09 H 264078.72 01-11-2009 10:37:26 1408.9208 1408.9208
106 Juan Fco. Arias . 81319 FMC 09 H 264520.62 01-11-2009 10:37:45 1408.8981 1408.8981
107 Juan Fco. Arias . 80005 FMC 09 H 264520.62 01-11-2009 10:37:45 1408.8981 1408.8981
108 Raul Ascencio . 133679 FMC 09 H 264720.9 01-11-2009 10:37:57 1408.4645 1408.4645
109 Mina Vieja . 74457 FMC 09 M 264297.95 01-11-2009 10:37:42 1408.0871 1408.0871
110 Sergio Aceves . 74778 FMC 09 H 264578.06 01-11-2009 10:37:56 1407.8293 1407.8293
111 Fco. Javier Aceves . 83098 FMC 09 H 264632.95 01-11-2009 10:37:59 1407.7469 1407.7469
112 Sergio Aceves . 74759 FMC 09 M 264578.06 01-11-2009 10:38:00 1407.3301 1407.3301
113 Palomar San Pedro . 83666 FMC 09 H 264387.59 01-11-2009 10:37:56 1406.8158 1406.8158
114 Ignacio Barba . 80016 FMC 09 M 264575.24 01-11-2009 10:38:06 1406.5669 1406.5669
115 Miguel Gonzalez . 75588 FMC 09 H 264288.71 01-11-2009 10:37:59 1405.9156 1405.9156
116 Fco. Javier Aceves . 84257 FMC 09 H 264632.95 01-11-2009 10:38:14 1405.8772 1405.8772
117 Ruben De La Torre . 75717 FMC 09 H 264441.54 01-11-2009 10:38:09 1405.4825 1405.4825
118 Ignacio Barba . 80017 FMC 09 M 264575.24 01-11-2009 10:38:17 1405.1973 1405.1973
119 Adrian Casillas . 78066 FMC 09 H 264762.72 01-11-2009 10:38:26 1405.0737 1405.0737
120 Juan Fco. Arias . 81301 FMC 09 H 264520.62 01-11-2009 10:38:16 1405.0316 1405.0316
121 Juan Fco. Arias . 81324 FMC 09 H 264520.62 01-11-2009 10:38:16 1405.0316 1405.0316
122 Adrian Casillas . 78220 FMC 09 H 264762.72 01-11-2009 10:38:28 1404.8252 1404.8252
123 Cleofas Casillas . 76030 FMC 09 H 264317.16 01-11-2009 10:38:09 1404.8215 1404.8215
124 Juan Fco. Arias . 81374 FMC 09 H 264520.62 01-11-2009 10:38:20 1404.5343 1404.5343
125 Juan Fco. Arias . 81378 FMC 09 H 264520.62 01-11-2009 10:38:22 1404.2857 1404.2857
126 Manuel Aceves . 75685 FMC 09 H 264399.53 01-11-2009 10:38:19 1404.0156 1404.0156
127 Cleofas Casillas . 76242 FMC 09 H 264317.16 01-11-2009 10:38:17 1403.8266 1403.8266
128 Fco. Javier Aceves . 84214 FMC 09 H 264632.95 01-11-2009 10:38:31 1403.7642 1403.7642
129 Sergio Aceves . 80343 FMC 09 M 264578.06 01-11-2009 10:38:29 1403.7212 1403.7212
130 Ruben De La Torre . 133622 FMC 09 H 264441.54 01-11-2009 10:38:26 1403.3692 1403.3692
131 Ignacio Barba . 80024 FMC 09 H 264575.24 01-11-2009 10:38:32 1403.3340 1403.3340
132 Juan Fco. Arias . 81320 FMC 09 H 264520.62 01-11-2009 10:38:30 1403.2924 1403.2924
133 Raul Ascencio . 77766 FMC 09 H 264720.9 01-11-2009 10:38:39 1403.2383 1403.2383
134 Jose Carlos y Lalo . 76334 FMC 09 H 264416.48 01-11-2009 10:38:27 1403.1121 1403.1121
135 Ignacio Barba . 75403 FMC 09 M 264575.24 01-11-2009 10:38:34 1403.0859 1403.0859
136 Juan Fco. Arias . 81361 FMC 09 H 264520.62 01-11-2009 10:38:32 1403.0443 1403.0443
137 Raul Ascencio . 77742 FMC 09 H 264720.9 01-11-2009 10:38:41 1402.9904 1402.9904
138 Manuel Aceves . 133542 FMC 09 H 264399.53 01-11-2009 10:38:30 1402.6500 1402.6500
139 Ignacio Navarro . 80105 FMC 09 M 264373.12 01-11-2009 10:38:29 1402.6339 1402.6339
140 Juan Fco. Arias . 80011 FMC 09 H 264520.62 01-11-2009 10:38:36 1402.5484 1402.5484
141 Adrian Casillas . 78009 FMC 09 H 264762.72 01-11-2009 10:38:48 1402.3449 1402.3449
142 Ignacio Navarro . 79071 FMC 09 H 264373.12 01-11-2009 10:38:32 1402.2620 1402.2620
143 PALOMAR GERO . 80057 FMC 09 H 264568.25 01-11-2009 10:38:42 1402.0575 1402.0575
144 Miguel Gonzalez . 85242 FMC 09 H 264288.71 01-11-2009 10:38:31 1401.9382 1401.9382
145 PALOMAR GERO . 74624 FMC 09 H 264568.25 01-11-2009 10:38:44 1401.8099 1401.8099
146 Ignacio Navarro . 79150 FMC 09 M 264373.12 01-11-2009 10:38:36 1401.7663 1401.7663
147 Cleofas Casillas . 76292 FMC 09 H 264317.16 01-11-2009 10:38:34 1401.7173 1401.7173
148 Cleofas Casillas . 76264 FMC 09 H 264317.16 01-11-2009 10:38:34 1401.7173 1401.7173
149 Ignacio Barba . 80047 FMC 09 H 264575.24 01-11-2009 10:38:46 1401.5994 1401.5994
150 PALOMAR GERO . 74605 FMC 09 H 264568.25 01-11-2009 10:38:47 1401.4386 1401.4386
151 Juan Carlos Aceves . 75912 FMC 09 M 264575.11 01-11-2009 10:38:48 1401.3512 1401.3512
152 PALOMAR GERO . 80313 FMC 09 H 264568.25 01-11-2009 10:38:50 1401.0675 1401.0675
153 Jose A. Paredes . 74038 FMC 09 H 264078.72 01-11-2009 10:38:30 1400.9481 1400.9481
154 Ignacio Barba . 77908 FMC 09 M 264575.24 01-11-2009 10:38:52 1400.8573 1400.8573
155 Jose A. Paredes . 74045 FMC 09 H 264078.72 01-11-2009 10:38:31 1400.8243 1400.8243
156 Jose Carlos y Lalo . 76329 FMC 09 H 264416.48 01-11-2009 10:38:46 1400.7583 1400.7583
157 Sergio Aceves . 80334 FMC 09 H 264578.06 01-11-2009 10:38:54 1400.6250 1400.6250
158 Cleofas Casillas . 80318 FMC 09 H 264317.16 01-11-2009 10:38:43 1400.6032 1400.6032
159 PALOMAR GERO . 80225 FMC 09 H 264568.25 01-11-2009 10:38:54 1400.5731 1400.5731
160 Fco. Javier Aceves . 84112 FMC 09 M 264632.95 01-11-2009 10:38:57 1400.5449 1400.5449
161 Jose Carlos y Lalo . 80153 FMC 09 H 264416.48 01-11-2009 10:38:48 1400.5110 1400.5110
162 Jorge Casillas . 77106 FMC 09 H 264459.18 01-11-2009 10:38:50 1400.4899 1400.4899
163 Fco. Javier Aceves . 80282 FMC 09 H 264632.95 01-11-2009 10:38:58 1400.4213 1400.4213
164 L Ernesto Castellano . 75102 FMC 09 H 264744.18 01-11-2009 10:39:03 1400.3924 1400.3924
165 Jose Carlos y Lalo . 76336 FMC 09 M 264416.48 01-11-2009 10:38:49 1400.3874 1400.3874
166 Ignacio Barba . 75448 FMC 09 M 264575.24 01-11-2009 10:38:56 1400.3629 1400.3629
167 Fco. Javier Aceves . 84210 FMC 09 H 264632.95 01-11-2009 10:38:59 1400.2978 1400.2978
168 Juan Carlos Aceves . 75918 FMC 09 M 264575.11 01-11-2009 10:38:57 1400.2387 1400.2387
169 Ignacio Barba . 75458 FMC 09 H 264575.24 01-11-2009 10:38:58 1400.1159 1400.1159
170 Adrian Casillas . 78024 FMC 09 H 264762.72 01-11-2009 10:39:08 1399.8734 1399.8734
171 Ignacio Navarro . 79026 FMC 09 H 264373.12 01-11-2009 10:38:52 1399.7871 1399.7871
172 Palomar San Pedro . 80265 FMC 09 H 264387.59 01-11-2009 10:38:53 1399.7402 1399.7402
173 Jorge Casillas . 77247 FMC 09 H 264459.18 01-11-2009 10:38:58 1399.5017 1399.5017
174 Ignacio Navarro . 79079 FMC 09 H 264373.12 01-11-2009 10:38:57 1399.1697 1399.1697
175 Enrique Jimenez . 74936 FMC 09 H 264342.03 01-11-2009 10:38:59 1398.7584 1398.7584
176 Jorge Casillas . 77138 FMC 09 H 264459.18 01-11-2009 10:39:05 1398.6382 1398.6382
177 Jorge Casillas . 77142 FMC 09 H 264459.18 01-11-2009 10:39:06 1398.5150 1398.5150
178 Enrique Jimenez . 74923 FMC 09 H 264342.03 01-11-2009 10:39:01 1398.5118 1398.5118
179 Jorge Casillas . 77231 FMC 09 H 264459.18 01-11-2009 10:39:07 1398.3917 1398.3917
180 Fco. Javier Aceves . 83376 FMC 09 M 264632.95 01-11-2009 10:39:15 1398.3247 1398.3247
181 L Ernesto Castellano . 133558 FMC 09 H 264744.18 01-11-2009 10:39:35 1396.4528 1396.4528
182 Mina Vieja . 80035 FMC 09 M 264297.95 01-11-2009 10:39:16 1396.4316 1396.4316
183 Manuel Aceves . 75689 FMC 09 M 264399.53 01-11-2009 10:39:21 1396.3535 1396.3535
184 Manuel Aceves . 124547 FMC 09 M 264399.53 01-11-2009 10:39:26 1395.7392 1395.7392
185 Mina Vieja . 74519 FMC 09 H 264297.95 01-11-2009 10:39:23 1395.5713 1395.5713
186 Miguel Gonzalez . 75325 FMC 09 M 264288.71 01-11-2009 10:39:36 1393.9278 1393.9278
187 Raul Ascencio . 77765 FMC 09 H 264720.9 01-11-2009 10:40:01 1393.1457 1393.1457
188 Jorge Casillas . 85235 FMC 09 H 264459.18 01-11-2009 10:40:00 1391.8904 1391.8904
189 Raul Ascencio . 77762 FMC 09 H 264720.9 01-11-2009 10:40:24 1390.3409 1390.3409
190 Jose A. Paredes . 74030 FMC 09 H 264078.72 01-11-2009 10:39:58 1390.1319 1390.1319
191 L Ernesto Castellano . 75183 FMC 09 H 264744.18 01-11-2009 10:40:29 1389.8548 1389.8548
192 Ignacio Barba . 75466 FMC 09 H 264575.24 01-11-2009 10:40:35 1388.2391 1388.2391
193 Adrian Casillas . 78088 FMC 09 H 264762.72 01-11-2009 10:40:45 1388.0090 1388.0090
194 Raul Ascencio . 77713 FMC 09 H 264720.9 01-11-2009 10:40:44 1387.9110 1387.9110
195 Juan Fco. Arias . 80002 FMC 09 H 264520.62 01-11-2009 10:40:36 1387.8312 1387.8312
196 Jorge Casillas . 77256 FMC 09 H 264459.18 01-11-2009 10:40:37 1387.3875 1387.3875
197 Ignacio Barba . 74570 FMC 09 H 264575.24 01-11-2009 10:40:44 1387.1474 1387.1474
198 Jorge Casillas . 77058 FMC 09 H 264459.18 01-11-2009 10:40:39 1387.1449 1387.1449
199 PALOMAR GERO . 74642 FMC 09 H 264568.25 01-11-2009 10:40:45 1386.9895 1386.9895
200 Ignacio Navarro . 79129 FMC 09 H 264373.12 01-11-2009 10:40:41 1386.4511 1386.4511
201 Cleofas Casillas . 76472 FMC 09 H 264317.16 01-11-2009 10:40:43 1385.9154 1385.9154
202 Enrique Jimenez . 74983 FMC 09 H 264342.03 01-11-2009 10:40:54 1384.7147 1384.7147
203 Jorge Casillas . 85209 FMC 09 H 264459.18 01-11-2009 10:41:00 1384.6030 1384.6030
204 Jorge Casillas . 15623 FMC 09 H 264459.18 01-11-2009 10:41:04 1384.1199 1384.1199
205 Jorge Casillas . 77281 FMC 09 H 264459.18 01-11-2009 10:41:06 1383.8785 1383.8785
206 Juan Fco. Arias . 12429 FMC 09 H 264520.62 01-11-2009 10:41:10 1383.7173 1383.7173
207 Juan Fco. Arias . 75001 FMC 09 H 264520.62 01-11-2009 10:41:12 1383.4760 1383.4760
208 Raul Ascencio . 133682 FMC 09 H 264720.9 01-11-2009 10:41:25 1382.9564 1382.9564
209 Cleofas Casillas . 76227 FMC 09 H 264317.16 01-11-2009 10:41:11 1382.5324 1382.5324
210 Jose Carlos y Lalo . 80151 FMC 09 M 264416.48 01-11-2009 10:41:16 1382.4494 1382.4494
211 Enrique Jimenez . 74984 FMC 09 H 264342.03 01-11-2009 10:41:13 1382.4215 1382.4215
212 Jorge Casillas . 77020 FMC 09 H 264459.18 01-11-2009 10:41:23 1381.8297 1381.8297
213 Manuel Aceves . 80242 FMC 09 M 264399.53 01-11-2009 10:41:21 1381.7587 1381.7587
214 Manuel Aceves . 75637 FMC 09 H 264399.53 01-11-2009 10:41:22 1381.6384 1381.6384
215 Enrique Jimenez . 74954 FMC 09 H 264342.03 01-11-2009 10:41:21 1381.4582 1381.4582
216 Jose A. Paredes . 74073 FMC 09 H 264078.72 01-11-2009 10:41:12 1381.1649 1381.1649
217 L Ernesto Castellano . 75204 FMC 09 H 264744.18 01-11-2009 10:41:41 1381.1539 1381.1539
218 Ignacio Barba . 133568 FMC 09 H 264575.24 01-11-2009 10:41:37 1380.7528 1380.7528
219 Raul Ascencio . 77755 FMC 09 H 264720.9 01-11-2009 10:41:44 1380.6723 1380.6723
220 Palomar San Pedro . 83685 FMC 09 M 264387.59 01-11-2009 10:41:33 1380.2537 1380.2537
221 Jorge Casillas . 77291 FMC 09 H 264459.18 01-11-2009 10:41:39 1379.9070 1379.9070
222 L Ernesto Castellano . 75210 FMC 09 H 264744.18 01-11-2009 10:41:54 1379.5945 1379.5945
223 Ignacio Barba . 77747 FMC 09 M 264575.24 01-11-2009 10:41:47 1379.5528 1379.5528
224 Ignacio Barba . 84749 FMC 09 M 264575.24 01-11-2009 10:41:51 1379.0734 1379.0734
225 Enrique Jimenez . 74909 FMC 09 H 264342.03 01-11-2009 10:41:41 1379.0559 1379.0559
226 Adrian Casillas . 78202 FMC 09 H 264762.72 01-11-2009 10:42:01 1378.8528 1378.8528
227 Jose Carlos y Lalo . 76339 FMC 09 M 264416.48 01-11-2009 10:41:50 1378.3657 1378.3657
228 PALOMAR GERO . 74628 FMC 09 H 264568.25 01-11-2009 10:42:04 1377.4813 1377.4813
229 Fco. Javier Aceves . 84131 FMC 09 M 264632.95 01-11-2009 10:42:07 1377.4596 1377.4596
230 Jose A. Paredes . 74074 FMC 09 H 264078.72 01-11-2009 10:41:43 1377.4427 1377.4427
231 Juan Fco. Arias . 12425 FMC 09 H 264520.62 01-11-2009 10:42:06 1376.9944 1376.9944
232 Jose Carlos y Lalo . 80320 FMC 09 H 264416.48 01-11-2009 10:42:02 1376.9301 1376.9301
233 Juan Carlos Aceves . 75992 FMC 09 M 264575.11 01-11-2009 10:42:09 1376.9196 1376.9196
234 Enrique Jimenez . 74964 FMC 09 H 264342.03 01-11-2009 10:42:02 1376.5424 1376.5424
235 Adrian Casillas . 78094 FMC 09 H 264762.72 01-11-2009 10:42:22 1376.3441 1376.3441
236 Ruben De La Torre . 75757 FMC 09 M 264441.54 01-11-2009 10:42:08 1376.3439 1376.3439
237 Sergio Aceves . 74786 FMC 09 H 264578.06 01-11-2009 10:42:19 1375.7417 1375.7417
238 Jose A. Paredes . 74121 FMC 09 H 264078.72 01-11-2009 10:41:58 1375.6488 1375.6488
239 Palomar San Pedro . 83660 FMC 09 H 264387.59 01-11-2009 10:42:12 1375.5858 1375.5858
240 Miguel Gonzalez . 75582 FMC 09 M 264288.71 01-11-2009 10:42:08 1375.5485 1375.5485
241 Palomar San Pedro . 83623 FMC 09 H 264387.59 01-11-2009 10:42:14 1375.3473 1375.3473
242 Adrian Casillas . 78043 FMC 09 H 264762.72 01-11-2009 10:42:39 1374.3199 1374.3199
243 Sergio Aceves . 80330 FMC 09 M 264578.06 01-11-2009 10:42:31 1374.3125 1374.3125
244 L Ernesto Castellano . 80128 FMC 09 H 264744.18 01-11-2009 10:42:57 1372.0870 1372.0870
245 Jose Carlos y Lalo . 80088 FMC 09 M 264416.48 01-11-2009 10:42:44 1371.9292 1371.9292
246 Fco. Javier Aceves . 84163 FMC 09 M 264632.95 01-11-2009 10:42:56 1371.6290 1371.6290
247 Ruben De La Torre . 75781 FMC 09 H 264441.54 01-11-2009 10:42:51 1371.2291 1371.2291
248 Mina Vieja . 80040 FMC 09 M 264297.95 01-11-2009 10:42:45 1371.1956 1371.1956
249 Juan Fco. Arias . 12424 FMC 09 H 264520.62 01-11-2009 10:42:55 1371.1652 1371.1652
250 Jose A. Paredes . 74071 FMC 09 H 264078.72 01-11-2009 10:42:36 1371.1252 1371.1252
251 Raul Ascencio . 77761 FMC 09 H 264720.9 01-11-2009 10:43:05 1371.0189 1371.0189
252 Jose A. Paredes . 74185 FMC 09 H 264078.72 01-11-2009 10:42:39 1370.7694 1370.7694
253 Ruben De La Torre . 80169 FMC 09 M 264441.54 01-11-2009 10:42:55 1370.7553 1370.7553
254 Jose A. Paredes . 74072 FMC 09 H 264078.72 01-11-2009 10:42:40 1370.6508 1370.6508
255 PALOMAR GERO . 80323 FMC 09 H 264568.25 01-11-2009 10:43:05 1370.2283 1370.2283
256 Raul Ascencio . 77763 FMC 09 H 264720.9 01-11-2009 10:43:12 1370.1910 1370.1910
257 Jose Carlos y Lalo . 80252 FMC 09 M 264416.48 01-11-2009 10:43:10 1368.8515 1368.8515
258 Jorge Casillas . 76483 FMC 09 H 264459.18 01-11-2009 10:43:16 1368.3642 1368.3642
259 Jose A. Paredes . 74141 FMC 09 H 264078.72 01-11-2009 10:43:20 1365.9244 1365.9244
260 Sergio Aceves . 74774 FMC 09 H 264578.06 01-11-2009 10:43:48 1365.2119 1365.2119
261 Ruben De La Torre . 75761 FMC 09 M 264441.54 01-11-2009 10:43:51 1364.1555 1364.1555
262 Enrique Jimenez . 74362 FMC 09 H 264342.03 01-11-2009 10:43:54 1363.2905 1363.2905
263 Sergio Aceves . 74760 FMC 09 H 264578.06 01-11-2009 10:44:09 1362.7508 1362.7508
264 Mina Vieja . 74432 FMC 09 M 264297.95 01-11-2009 10:44:00 1362.3606 1362.3606
265 L Ernesto Castellano . 75217 FMC 09 H 264744.18 01-11-2009 10:44:21 1362.2031 1362.2031
266 Sergio Aceves . 74772 FMC 09 M 264578.06 01-11-2009 10:44:16 1361.9324 1361.9324
267 Mina Vieja . 80046 FMC 09 H 264297.95 01-11-2009 10:44:04 1361.8926 1361.8926
268 Fco. Javier Aceves . 84258 FMC 09 M 264632.95 01-11-2009 10:44:25 1361.1639 1361.1639
269 Fco. Javier Aceves . 80286 FMC 09 H 264632.95 01-11-2009 10:44:28 1360.8139 1360.8139
270 Jose A. Paredes . 74028 FMC 09 H 264078.72 01-11-2009 10:44:09 1360.1788 1360.1788
271 Jose Carlos y Lalo . 76358 FMC 09 H 264416.48 01-11-2009 10:44:26 1359.9339 1359.9339
272 Fco. Javier Aceves . 84158 FMC 09 M 264632.95 01-11-2009 10:44:36 1359.8816 1359.8816
273 Jorge Casillas . 77214 FMC 09 H 264459.18 01-11-2009 10:44:30 1359.6873 1359.6873
274 Jose Carlos y Lalo . 85033 FMC 09 M 264416.48 01-11-2009 10:44:30 1359.4678 1359.4678
275 Palomar San Pedro . 83622 FMC 09 M 264387.59 01-11-2009 10:44:30 1359.3192 1359.3192
276 L Ernesto Castellano . 75225 FMC 09 H 264744.18 01-11-2009 10:45:05 1357.0825 1357.0825
277 Adrian Casillas . 78195 FMC 09 H 264762.72 01-11-2009 10:45:09 1356.7139 1356.7139
278 Jose Carlos y Lalo . 76309 FMC 09 H 264416.48 01-11-2009 10:44:57 1356.3297 1356.3297
279 Juan Fco. Arias . 75002 FMC 09 H 264520.62 01-11-2009 10:45:03 1356.1683 1356.1683
280 Mina Vieja . 80034 FMC 09 H 264297.95 01-11-2009 10:44:55 1355.9536 1355.9536
281 Raul Ascencio . 77789 FMC 09 H 264720.9 01-11-2009 10:45:17 1355.5734 1355.5734
282 PALOMAR GERO . 74671 FMC 09 H 264568.25 01-11-2009 10:45:17 1354.7918 1354.7918
283 Juan Fco. Arias . 81392 FMC 09 H 264520.62 01-11-2009 10:45:19 1354.3167 1354.3167
284 Juan Carlos Aceves . 75924 FMC 09 M 264575.11 01-11-2009 10:45:39 1352.2878 1352.2878
285 Adrian Casillas . 78150 FMC 09 H 264762.72 01-11-2009 10:45:55 1351.4048 1351.4048
286 Sergio Aceves . 74770 FMC 09 M 264578.06 01-11-2009 10:45:48 1351.2669 1351.2669
287 Juan Carlos Aceves . 84273 FMC 09 M 264575.11 01-11-2009 10:45:48 1351.2518 1351.2518
288 Fco. Javier Aceves . 84223 FMC 09 H 264632.95 01-11-2009 10:45:51 1351.2022 1351.2022
289 Sergio Aceves . 74743 FMC 09 H 264578.06 01-11-2009 10:45:49 1351.1519 1351.1519
290 Fco. Javier Aceves . 84135 FMC 09 H 264632.95 01-11-2009 10:45:52 1351.0872 1351.0872
291 Sergio Aceves . 74793 FMC 09 M 264578.06 01-11-2009 10:45:51 1350.9219 1350.9219
292 Manuel Aceves . 75652 FMC 09 H 264399.53 01-11-2009 10:45:44 1350.8150 1350.8150
293 Adrian Casillas . 78004 FMC 09 H 264762.72 01-11-2009 10:46:02 1350.6005 1350.6005
294 Enrique Jimenez . 74945 FMC 09 H 264342.03 01-11-2009 10:45:44 1350.5213 1350.5213
295 Cleofas Casillas . 76590 FMC 09 H 264317.16 01-11-2009 10:45:46 1350.1643 1350.1643
296 Adrian Casillas . 78211 FMC 09 H 264762.72 01-11-2009 10:46:06 1350.1414 1350.1414
297 Jorge Casillas . 77255 FMC 09 H 264459.18 01-11-2009 10:45:54 1349.9703 1349.9703
298 Jorge Casillas . 77126 FMC 09 H 264459.18 01-11-2009 10:45:58 1349.5110 1349.5110
299 Jorge Casillas . 77186 FMC 09 H 264459.18 01-11-2009 10:45:59 1349.3963 1349.3963
300 Jorge Casillas . 77143 FMC 09 H 264459.18 01-11-2009 10:46:04 1348.8227 1348.8227
301 Ignacio Barba . 84748 FMC 09 M 264575.24 01-11-2009 10:46:10 1348.7268 1348.7268
302 Cleofas Casillas . 76230 FMC 09 H 264317.16 01-11-2009 10:46:02 1348.3276 1348.3276
303 Ruben De La Torre . 75760 FMC 09 M 264441.54 01-11-2009 10:46:08 1348.2743 1348.2743
304 Juan Fco. Arias . 81362 FMC 09 H 264520.62 01-11-2009 10:46:12 1348.2193 1348.2193
305 Juan Fco. Arias . 81304 FMC 09 H 264520.62 01-11-2009 10:46:12 1348.2193 1348.2193
306 Raul Ascencio . 77768 FMC 09 H 264720.9 01-11-2009 10:46:35 1346.6091 1346.6091
307 Sergio Aceves . 74733 FMC 09 H 264578.06 01-11-2009 10:46:31 1346.3390 1346.3390
308 Adrian Casillas . 78120 FMC 09 H 264762.72 01-11-2009 10:46:43 1345.9089 1345.9089
309 Miguel Gonzalez . 75328 FMC 09 H 264288.71 01-11-2009 10:46:28 1345.2089 1345.2089
310 Miguel Gonzalez . 75509 FMC 09 H 264288.71 01-11-2009 10:46:40 1343.8409 1343.8409
311 Jose A. Paredes . 74050 FMC 09 H 264078.72 01-11-2009 10:46:33 1343.5702 1343.5702
312 Palomar San Pedro . 83632 FMC 09 M 264387.59 01-11-2009 10:46:48 1343.4329 1343.4329
313 Raul Ascencio . 77718 FMC 09 H 264720.9 01-11-2009 10:47:03 1343.4199 1343.4199
314 Mina Vieja . 80039 FMC 09 H 264297.95 01-11-2009 10:46:46 1343.2049 1343.2049
315 Fco. Javier Aceves . 84261 FMC 09 H 264632.95 01-11-2009 10:47:01 1343.2008 1343.2008
316 Manuel Aceves . 124548 FMC 09 H 264399.53 01-11-2009 10:46:51 1343.1523 1343.1523
317 Manuel Aceves . 75680 FMC 09 M 264399.53 01-11-2009 10:46:53 1342.9249 1342.9249
318 L Ernesto Castellano . 75223 FMC 09 H 264744.18 01-11-2009 10:47:09 1342.8566 1342.8566
319 Cleofas Casillas . 76020 FMC 09 H 264317.16 01-11-2009 10:46:50 1342.8476 1342.8476
320 Fco. Javier Aceves . 84203 FMC 09 H 264632.95 01-11-2009 10:47:15 1341.6119 1341.6119
321 Raul Ascencio . 77796 FMC 09 H 264720.9 01-11-2009 10:47:19 1341.6044 1341.6044
322 Fco. Javier Aceves . 80279 FMC 09 H 264632.95 01-11-2009 10:47:16 1341.4986 1341.4986
323 Ignacio Navarro . 80104 FMC 09 H 264373.12 01-11-2009 10:47:05 1341.4281 1341.4281
324 Jose A. Paredes . 74133 FMC 09 H 264078.72 01-11-2009 10:46:58 1340.7280 1340.7280
325 Ignacio Navarro . 75267 FMC 09 M 264373.12 01-11-2009 10:47:12 1340.6345 1340.6345
326 Jorge Casillas . 77046 FMC 09 H 264459.18 01-11-2009 10:47:16 1340.6177 1340.6177
327 L Ernesto Castellano . 80122 FMC 09 H 264744.18 01-11-2009 10:47:30 1340.4769 1340.4769
328 Jose A. Paredes . 74002 FMC 09 M 264078.72 01-11-2009 10:47:04 1340.0476 1340.0476
329 Ignacio Navarro . 79149 FMC 09 M 264373.12 01-11-2009 10:47:19 1339.8418 1339.8418
330 L Ernesto Castellano . 75170 FMC 09 H 264744.18 01-11-2009 10:47:38 1339.5725 1339.5725
331 Mina Vieja . 80079 FMC 09 M 264297.95 01-11-2009 10:47:19 1339.4608 1339.4608
332 Miguel Gonzalez . 75315 FMC 09 H 264288.71 01-11-2009 10:47:19 1339.4140 1339.4140
333 Jose Carlos y Lalo . 76327 FMC 09 M 264416.48 01-11-2009 10:47:27 1339.1566 1339.1566
334 Sergio Aceves . 74766 FMC 09 H 264578.06 01-11-2009 10:47:35 1339.0707 1339.0707
335 Sergio Aceves . 74754 FMC 09 M 264578.06 01-11-2009 10:47:36 1338.9578 1338.9578
336 Manuel Aceves . 80201 FMC 09 M 264399.53 01-11-2009 10:47:28 1338.9578 1338.9578
337 Fco. Javier Aceves . 84103 FMC 09 M 264632.95 01-11-2009 10:47:40 1338.7839 1338.7839
338 Manuel Aceves . 133521 FMC 09 H 264399.53 01-11-2009 10:47:32 1338.5059 1338.5059
339 Enrique Jimenez . 74941 FMC 09 H 264342.03 01-11-2009 10:47:30 1338.4407 1338.4407
340 Cleofas Casillas . 76417 FMC 09 H 264317.16 01-11-2009 10:47:33 1337.9760 1337.9760
341 PALOMAR GERO . 74611 FMC 09 H 264568.25 01-11-2009 10:47:46 1337.7798 1337.7798
342 Jorge Casillas . 77206 FMC 09 H 264459.18 01-11-2009 10:47:46 1337.2283 1337.2283
343 Adrian Casillas . 78192 FMC 09 H 264762.72 01-11-2009 10:48:02 1336.9604 1336.9604
344 Adrian Casillas . 78129 FMC 09 H 264762.72 01-11-2009 10:48:04 1336.7354 1336.7354
345 Ruben De La Torre . 75712 FMC 09 H 264441.54 01-11-2009 10:47:51 1336.5759 1336.5759
346 Jose A. Paredes . 74089 FMC 09 H 264078.72 01-11-2009 10:47:37 1336.3181 1336.3181
347 Sergio Aceves . 74712 FMC 09 H 264578.06 01-11-2009 10:48:02 1336.0279 1336.0279
348 Sergio Aceves . 74728 FMC 09 M 264578.06 01-11-2009 10:48:04 1335.8031 1335.8031
349 Jose Carlos y Lalo . 76320 FMC 09 M 264416.48 01-11-2009 10:47:57 1335.7741 1335.7741
350 PALOMAR GERO . 74672 FMC 09 H 264568.25 01-11-2009 10:48:05 1335.6411 1335.6411
351 Ignacio Navarro . 79128 FMC 09 H 264373.12 01-11-2009 10:47:57 1335.5550 1335.5550
352 Sergio Aceves . 74764 FMC 09 H 264578.06 01-11-2009 10:48:09 1335.2413 1335.2413
353 Fco. Javier Aceves . 84173 FMC 09 M 264632.95 01-11-2009 10:48:16 1334.7324 1334.7324
354 Adrian Casillas . 78097 FMC 09 H 264762.72 01-11-2009 10:48:22 1334.7138 1334.7138
355 Cleofas Casillas . 76269 FMC 09 H 264317.16 01-11-2009 10:48:02 1334.7105 1334.7105
356 Miguel Gonzalez . 75545 FMC 09 H 264288.71 01-11-2009 10:48:01 1334.6791 1334.6791
357 Ruben De La Torre . 75765 FMC 09 H 264441.54 01-11-2009 10:48:09 1334.5523 1334.5523
358 Enrique Jimenez . 74985 FMC 09 H 264342.03 01-11-2009 10:48:06 1334.3868 1334.3868
359 Enrique Jimenez . 74361 FMC 09 H 264342.03 01-11-2009 10:48:09 1334.0501 1334.0501
360 Miguel Gonzalez . 75385 FMC 09 M 264288.71 01-11-2009 10:48:07 1334.0054 1334.0054
361 Jose A. Paredes . 74062 FMC 09 H 264078.72 01-11-2009 10:47:59 1333.8432 1333.8432
362 Adrian Casillas . 78019 FMC 09 H 264762.72 01-11-2009 10:48:31 1333.7052 1333.7052
363 Jose A. Paredes . 74015 FMC 09 H 264078.72 01-11-2009 10:48:04 1333.2820 1333.2820
364 Juan Carlos Aceves . 75979 FMC 09 M 264575.11 01-11-2009 10:48:27 1333.2079 1333.2079
365 Enrique Jimenez . 77717 FMC 09 H 264342.03 01-11-2009 10:48:19 1332.9290 1332.9290
366 Enrique Jimenez . 74942 FMC 09 H 264342.03 01-11-2009 10:48:23 1332.4810 1332.4810
367 Mina Vieja . 74439 FMC 09 H 264297.95 01-11-2009 10:48:24 1332.1469 1332.1469
368 Enrique Jimenez . 74950 FMC 09 H 264342.03 01-11-2009 10:48:27 1332.0334 1332.0334
369 Mina Vieja . 74483 FMC 09 M 264297.95 01-11-2009 10:48:27 1331.8113 1331.8113
370 Jose Carlos y Lalo . 77087 FMC 09 M 264416.48 01-11-2009 10:48:34 1331.6257 1331.6257
371 Mina Vieja . 74536 FMC 09 H 264297.95 01-11-2009 10:48:29 1331.5876 1331.5876
372 Mina Vieja . 80082 FMC 09 M 264297.95 01-11-2009 10:48:32 1331.2523 1331.2523
373 Fco. Javier Aceves . 84143 FMC 09 M 264632.95 01-11-2009 10:48:49 1331.0401 1331.0401
374 Jose A. Paredes . 74140 FMC 09 H 264078.72 01-11-2009 10:48:31 1330.2597 1330.2597
375 Jose A. Paredes . 80230 FMC 09 H 264078.72 01-11-2009 10:48:39 1329.3668 1329.3668
376 Cleofas Casillas . 76240 FMC 09 H 264317.16 01-11-2009 10:48:55 1328.7834 1328.7834
377 Ignacio Barba . 75449 FMC 09 H 264575.24 01-11-2009 10:49:09 1328.5224 1328.5224
378 Miguel Gonzalez . 75319 FMC 09 H 264288.71 01-11-2009 10:49:04 1327.6392 1327.6392
379 Ruben De La Torre . 75770 FMC 09 M 264441.54 01-11-2009 10:49:11 1327.6289 1327.6289
380 Ruben De La Torre . 75735 FMC 09 H 264441.54 01-11-2009 10:49:12 1327.5178 1327.5178
381 Ignacio Navarro . 79179 FMC 09 H 264373.12 01-11-2009 10:49:09 1327.5075 1327.5075
382 Ignacio Navarro . 79044 FMC 09 H 264373.12 01-11-2009 10:49:10 1327.3964 1327.3964
383 Ignacio Navarro . 79052 FMC 09 M 264373.12 01-11-2009 10:49:18 1326.5084 1326.5084
384 Manuel Aceves . 75619 FMC 09 H 264399.53 01-11-2009 10:49:26 1325.7540 1325.7540
385 Ignacio Barba . 75500 FMC 09 H 264575.24 01-11-2009 10:49:40 1325.0847 1325.0847
386 Jorge Casillas . 77292 FMC 09 H 264459.18 01-11-2009 10:49:35 1325.0564 1325.0564
387 Jorge Casillas . 77282 FMC 09 H 264459.18 01-11-2009 10:49:35 1325.0564 1325.0564
388 PALOMAR GERO . 74664 FMC 09 H 264568.25 01-11-2009 10:49:41 1324.9391 1324.9391
389 Enrique Jimenez . 74960 FMC 09 H 264342.03 01-11-2009 10:49:32 1324.8014 1324.8014
390 Enrique Jimenez . 74364 FMC 09 H 264342.03 01-11-2009 10:49:35 1324.4695 1324.4695
391 Adrian Casillas . 78198 FMC 09 H 264762.72 01-11-2009 10:49:56 1324.2550 1324.2550
392 Cleofas Casillas . 80312 FMC 09 H 264317.16 01-11-2009 10:49:39 1323.9026 1323.9026
393 Enrique Jimenez . 74963 FMC 09 H 264342.03 01-11-2009 10:49:41 1323.8062 1323.8062
394 Ignacio Navarro . 79022 FMC 09 H 264373.12 01-11-2009 10:49:49 1323.0784 1323.0784
395 Jose A. Paredes . 80248 FMC 09 H 264078.72 01-11-2009 10:49:37 1322.9292 1322.9292
396 Miguel Gonzalez . 75317 FMC 09 H 264288.71 01-11-2009 10:49:47 1322.8767 1322.8767
397 Miguel Gonzalez . 75306 FMC 09 M 264288.71 01-11-2009 10:49:50 1322.5457 1322.5457
398 L Ernesto Castellano . 75237 FMC 09 H 264744.18 01-11-2009 10:50:12 1322.3985 1322.3985
399 Juan Fco. Arias . 81383 FMC 09 H 264520.62 01-11-2009 10:50:03 1322.2725 1322.2725
400 Adrian Casillas . 78239 FMC 09 H 264762.72 01-11-2009 10:50:16 1322.0509 1322.0509
401 PALOMAR GERO . 80226 FMC 09 H 264568.25 01-11-2009 10:50:15 1321.1898 1321.1898
402 Mina Vieja . 74471 FMC 09 H 264297.95 01-11-2009 10:50:03 1321.1595 1321.1595
403 Jose Carlos y Lalo . 76209 FMC 09 H 264416.48 01-11-2009 10:50:09 1321.0916 1321.0916
404 Jose Carlos y Lalo . 76243 FMC 09 M 264416.48 01-11-2009 10:50:11 1320.8716 1320.8716
405 Raul Ascencio . 133692 FMC 09 H 264720.9 01-11-2009 10:50:25 1320.8527 1320.8527
406 Cleofas Casillas . 76016 FMC 09 H 264317.16 01-11-2009 10:50:12 1320.2655 1320.2655
407 Mina Vieja . 80031 FMC 09 M 264297.95 01-11-2009 10:50:17 1319.6203 1319.6203
408 Sergio Aceves . 80329 FMC 09 H 264578.06 01-11-2009 10:50:37 1318.8239 1318.8239
409 Fco. Javier Aceves . 84168 FMC 09 M 264632.95 01-11-2009 10:50:46 1318.1120 1318.1120
410 Miguel Gonzalez . 75332 FMC 09 H 264288.71 01-11-2009 10:50:31 1318.0386 1318.0386
411 Ignacio Navarro . 79198 FMC 09 H 264373.12 01-11-2009 10:50:39 1317.5835 1317.5835
412 Manuel Aceves . 133543 FMC 09 H 264399.53 01-11-2009 10:50:44 1317.1680 1317.1680
413 PALOMAR GERO . 74613 FMC 09 H 264568.25 01-11-2009 10:50:57 1316.5875 1316.5875
414 Juan Fco. Arias . 80003 FMC 09 H 264520.62 01-11-2009 10:51:01 1315.9139 1315.9139
415 Cleofas Casillas . 76067 FMC 09 H 264317.16 01-11-2009 10:50:53 1315.7745 1315.7745
416 Manuel Aceves . 80206 FMC 09 M 264399.53 01-11-2009 10:50:57 1315.7478 1315.7478
417 Cleofas Casillas . 76260 FMC 09 H 264317.16 01-11-2009 10:50:56 1315.4470 1315.4470
418 Ignacio Navarro . 80107 FMC 09 M 264373.12 01-11-2009 10:51:05 1314.7441 1314.7441
419 Miguel Gonzalez . 75314 FMC 09 H 264288.71 01-11-2009 10:51:07 1314.1065 1314.1065
420 Raul Ascencio . 80258 FMC 09 H 264720.9 01-11-2009 10:51:30 1313.7514 1313.7514
421 Sergio Aceves . 80347 FMC 09 H 264578.06 01-11-2009 10:51:24 1313.6944 1313.6944
422 Palomar San Pedro . 83664 FMC 09 M 264387.59 01-11-2009 10:51:22 1312.9660 1312.9660
423 Ignacio Navarro . 79089 FMC 09 H 264373.12 01-11-2009 10:51:22 1312.8942 1312.8942
424 Jose A. Paredes . 74042 FMC 09 H 264078.72 01-11-2009 10:51:19 1311.7579 1311.7579
425 Cleofas Casillas . 76253 FMC 09 H 264317.16 01-11-2009 10:51:30 1311.7477 1311.7477
426 Adrian Casillas . 78235 FMC 09 H 264762.72 01-11-2009 10:51:51 1311.6806 1311.6806
427 Mina Vieja . 74424 FMC 09 M 264297.95 01-11-2009 10:51:30 1311.6524 1311.6524
428 L Ernesto Castellano . 133554 FMC 09 H 264744.18 01-11-2009 10:52:19 1308.5634 1308.5634
429 Sergio Aceves . 74715 FMC 09 H 264578.06 01-11-2009 10:52:15 1308.1733 1308.1733
430 Jorge Casillas . 77293 FMC 09 H 264459.18 01-11-2009 10:52:11 1308.0167 1308.0167
431 Fco. Javier Aceves . 84146 FMC 09 H 264632.95 01-11-2009 10:52:20 1307.9058 1307.9058
432 Ignacio Navarro . 79148 FMC 09 M 264373.12 01-11-2009 10:52:16 1307.0523 1307.0523
433 PALOMAR GERO . 74601 FMC 09 H 264568.25 01-11-2009 10:52:25 1307.0478 1307.0478
434 Sergio Aceves . 74746 FMC 09 M 264578.06 01-11-2009 10:52:27 1306.8810 1306.8810
435 Sergio Aceves . 74768 FMC 09 M 264578.06 01-11-2009 10:52:27 1306.8810 1306.8810
436 Cleofas Casillas . 76251 FMC 09 H 264317.16 01-11-2009 10:52:17 1306.6680 1306.6680
437 Ignacio Navarro . 79002 FMC 09 H 264373.12 01-11-2009 10:52:23 1306.2989 1306.2989
438 Cleofas Casillas . 76412 FMC 09 H 264317.16 01-11-2009 10:52:22 1306.1299 1306.1299
439 Juan Fco. Arias . 81389 FMC 09 H 264520.62 01-11-2009 10:52:32 1306.0597 1306.0597
440 Ignacio Navarro . 79171 FMC 09 H 264373.12 01-11-2009 10:52:26 1305.9762 1305.9762
441 Juan Fco. Arias . 81354 FMC 09 H 264520.62 01-11-2009 10:52:36 1305.6299 1305.6299
442 Cleofas Casillas . 80167 FMC 09 H 264317.16 01-11-2009 10:52:28 1305.4848 1305.4848
443 Miguel Gonzalez . 75336 FMC 09 H 264288.71 01-11-2009 10:52:33 1304.8073 1304.8073
444 Mina Vieja . 80037 FMC 09 H 264297.95 01-11-2009 10:52:35 1304.6382 1304.6382
445 Raul Ascencio . 77721 FMC 09 H 264720.9 01-11-2009 10:53:00 1304.0438 1304.0438
446 Miguel Gonzalez . 76705 FMC 09 H 264288.71 01-11-2009 10:52:43 1303.7345 1303.7345
447 Fco. Javier Aceves . 84213 FMC 09 M 264632.95 01-11-2009 10:53:02 1303.3966 1303.3966
448 Juan Carlos Aceves . 75937 FMC 09 M 264575.11 01-11-2009 10:53:05 1302.7909 1302.7909
449 Juan Carlos Aceves . 133924 FMC 09 H 264575.11 01-11-2009 10:53:07 1302.5771 1302.5771
450 Enrique Jimenez . 74351 FMC 09 H 264342.03 01-11-2009 10:52:59 1302.2844 1302.2844
451 Adrian Casillas . 78091 FMC 09 H 264762.72 01-11-2009 10:53:24 1301.6850 1301.6850
452 Sergio Aceves . 80338 FMC 09 M 264578.06 01-11-2009 10:53:22 1300.9903 1300.9903
453 PALOMAR GERO . 80305 FMC 09 H 264568.25 01-11-2009 10:53:25 1300.6223 1300.6223
454 Manuel Aceves . 75220 FMC 09 M 264399.53 01-11-2009 10:53:20 1300.3256 1300.3256
455 Jose Carlos y Lalo . 76319 FMC 09 H 264416.48 01-11-2009 10:53:27 1299.6632 1299.6632
456 Miguel Gonzalez . 75544 FMC 09 H 264288.71 01-11-2009 10:53:28 1298.9288 1298.9288
457 Raul Ascencio . 77775 FMC 09 H 264720.9 01-11-2009 10:53:55 1298.1818 1298.1818
458 Miguel Gonzalez . 75339 FMC 09 H 264288.71 01-11-2009 10:53:36 1298.0781 1298.0781
459 Raul Ascencio . 77710 FMC 09 H 264720.9 01-11-2009 10:53:57 1297.9696 1297.9696
460 Ignacio Barba . 84731 FMC 09 H 264575.24 01-11-2009 10:53:55 1297.4675 1297.4675
461 Juan Fco. Arias . 81333 FMC 09 H 264520.62 01-11-2009 10:54:19 1294.6600 1294.6600
462 Ignacio Navarro . 75252 FMC 09 H 264373.12 01-11-2009 10:54:18 1294.0437 1294.0437
463 Enrique Jimenez . 74915 FMC 09 H 264342.03 01-11-2009 10:54:22 1293.4694 1293.4694
464 Juan Fco. Arias . 81342 FMC 09 H 264520.62 01-11-2009 10:54:32 1293.2886 1293.2886
465 Sergio Aceves . 74701 FMC 09 H 264578.06 01-11-2009 10:54:37 1293.0426 1293.0426
466 Ignacio Barba . 75411 FMC 09 M 264575.24 01-11-2009 10:54:41 1292.6076 1292.6076
467 Adrian Casillas . 78099 FMC 09 H 264762.72 01-11-2009 10:54:51 1292.4712 1292.4712
468 Adrian Casillas . 78045 FMC 09 H 264762.72 01-11-2009 10:54:53 1292.2609 1292.2609
469 Adrian Casillas . 78063 FMC 09 H 264762.72 01-11-2009 10:55:00 1291.5255 1291.5255
470 Raul Ascencio . 77790 FMC 09 H 264720.9 01-11-2009 10:55:14 1289.8533 1289.8533
471 Adrian Casillas . 78025 FMC 09 H 264762.72 01-11-2009 10:55:16 1289.8476 1289.8476
472 Ruben De La Torre . 75758 FMC 09 H 264441.54 01-11-2009 10:55:05 1289.4346 1289.4346
473 Ignacio Navarro . 79075 FMC 09 H 264373.12 01-11-2009 10:55:02 1289.4153 1289.4153
474 Enrique Jimenez . 74363 FMC 09 H 264342.03 01-11-2009 10:55:05 1288.9494 1288.9494
475 Miguel Gonzalez . 75536 FMC 09 H 264288.71 01-11-2009 10:55:28 1286.2851 1286.2851
476 Miguel Gonzalez . 75586 FMC 09 H 264288.71 01-11-2009 10:55:32 1285.8679 1285.8679
477 Raul Ascencio . 80257 FMC 09 H 264720.9 01-11-2009 10:55:55 1285.5730 1285.5730
478 PALOMAR GERO . 74639 FMC 09 H 264568.25 01-11-2009 10:55:58 1284.5197 1284.5197
479 Jose A. Paredes . 74084 FMC 09 H 264078.72 01-11-2009 10:55:38 1284.2214 1284.2214
480 Juan Carlos Aceves . 75999 FMC 09 M 264575.11 01-11-2009 10:56:08 1283.5144 1283.5144
481 Cleofas Casillas . 76152 FMC 09 H 264317.16 01-11-2009 10:55:56 1283.5084 1283.5084
482 Enrique Jimenez . 74902 FMC 09 H 264342.03 01-11-2009 10:55:58 1283.4214 1283.4214
483 Enrique Jimenez . 74911 FMC 09 H 264342.03 01-11-2009 10:55:59 1283.3176 1283.3176
484 Jose A. Paredes . 77692 FMC 09 H 264078.72 01-11-2009 10:55:51 1282.8697 1282.8697
485 Juan Carlos Aceves . 75953 FMC 09 M 264575.11 01-11-2009 10:56:22 1282.0632 1282.0632
486 L Ernesto Castellano . 75108 FMC 09 H 264744.18 01-11-2009 10:56:30 1282.0541 1282.0541
487 Ignacio Navarro . 79086 FMC 09 H 264373.12 01-11-2009 10:56:14 1281.9127 1281.9127
488 Enrique Jimenez . 74997 FMC 09 H 264342.03 01-11-2009 10:56:17 1281.4512 1281.4512
489 Jose A. Paredes . 74151 FMC 09 H 264078.72 01-11-2009 10:56:07 1281.2099 1281.2099
490 Ignacio Navarro . 79182 FMC 09 H 264373.12 01-11-2009 10:56:26 1280.6707 1280.6707
491 Fco. Javier Aceves . 84175 FMC 09 H 264632.95 01-11-2009 10:56:40 1280.4820 1280.4820
492 Fco. Javier Aceves . 84254 FMC 09 H 264632.95 01-11-2009 10:56:41 1280.3788 1280.3788
493 L Ernesto Castellano . 75207 FMC 09 H 264744.18 01-11-2009 10:56:54 1279.5755 1279.5755
494 Ignacio Barba . 80021 FMC 09 H 264575.24 01-11-2009 10:56:49 1279.2743 1279.2743
495 Miguel Gonzalez . 75522 FMC 09 M 264288.71 01-11-2009 10:56:38 1279.0226 1279.0226
496 Miguel Gonzalez . 75532 FMC 09 H 264288.71 01-11-2009 10:56:41 1278.7132 1278.7132
497 Ignacio Barba . 80026 FMC 09 H 264575.24 01-11-2009 10:56:55 1278.6560 1278.6560
498 Jorge Casillas . 77297 FMC 09 H 264459.18 01-11-2009 10:56:54 1278.1981 1278.1981
499 Sergio Aceves . 74781 FMC 09 H 264578.06 01-11-2009 10:57:02 1277.9491 1277.9491
500 Miguel Gonzalez . 75547 FMC 09 H 264288.71 01-11-2009 10:56:50 1277.7859 1277.7859
501 Miguel Gonzalez . 75530 FMC 09 H 264288.71 01-11-2009 10:56:51 1277.6829 1277.6829
502 Miguel Gonzalez . 75311 FMC 09 M 264288.71 01-11-2009 10:56:52 1277.5800 1277.5800
503 Miguel Gonzalez . 75363 FMC 09 M 264288.71 01-11-2009 10:56:54 1277.3741 1277.3741
504 Ruben De La Torre . 80170 FMC 09 H 264441.54 01-11-2009 10:57:04 1277.0841 1277.0841
505 Jose A. Paredes . 74165 FMC 09 H 264078.72 01-11-2009 10:56:47 1277.0793 1277.0793
506 Ruben De La Torre . 75738 FMC 09 H 264441.54 01-11-2009 10:57:13 1276.1596 1276.1596
507 Raul Ascencio . 80253 FMC 09 H 264720.9 01-11-2009 10:57:31 1275.6609 1275.6609
508 Juan Carlos Aceves . 133919 FMC 09 H 264575.11 01-11-2009 10:57:27 1275.3681 1275.3681
509 Jose Carlos y Lalo . 76040 FMC 09 H 264416.48 01-11-2009 10:57:23 1275.0132 1275.0132
510 Palomar San Pedro . 83688 FMC 09 H 264387.59 01-11-2009 10:57:26 1274.5666 1274.5666
511 L Ernesto Castellano . 75130 FMC 09 H 264744.18 01-11-2009 10:57:44 1274.4425 1274.4425
512 Jose Carlos y Lalo . 80148 FMC 09 H 264416.48 01-11-2009 10:57:29 1274.3987 1274.3987
513 Palomar San Pedro . 83652 FMC 09 M 264387.59 01-11-2009 10:57:28 1274.3618 1274.3618
514 Fco. Javier Aceves . 84206 FMC 09 M 264632.95 01-11-2009 10:57:41 1274.2137 1274.2137
515 Miguel Gonzalez . 75321 FMC 09 H 264288.71 01-11-2009 10:57:27 1273.9875 1273.9875
516 Juan Carlos Aceves . 75929 FMC 09 M 264575.11 01-11-2009 10:57:41 1273.9352 1273.9352
517 Palomar San Pedro . 83675 FMC 09 H 264387.59 01-11-2009 10:57:34 1273.7478 1273.7478
518 Fco. Javier Aceves . 84169 FMC 09 H 264632.95 01-11-2009 10:57:51 1273.1920 1273.1920
519 Juan Carlos Aceves . 75904 FMC 09 M 264575.11 01-11-2009 10:57:53 1272.7096 1272.7096
520 Juan Carlos Aceves . 75963 FMC 09 M 264575.11 01-11-2009 10:57:55 1272.5055 1272.5055
521 Ruben De La Torre . 133611 FMC 09 H 264441.54 01-11-2009 10:58:01 1271.2517 1271.2517
522 PALOMAR GERO . 74635 FMC 09 H 264568.25 01-11-2009 10:58:08 1271.1479 1271.1479
523 Jose Carlos y Lalo . 76228 FMC 09 M 264416.48 01-11-2009 10:58:02 1271.0294 1271.0294
524 L Ernesto Castellano . 80135 FMC 09 H 264744.18 01-11-2009 10:58:38 1268.9448 1268.9448
525 Ignacio Barba . 75405 FMC 09 M 264575.24 01-11-2009 10:58:43 1267.6287 1267.6287
526 Juan Carlos Aceves . 75986 FMC 09 M 264575.11 01-11-2009 10:58:46 1267.3245 1267.3245
527 Adrian Casillas . 78017 FMC 09 H 264762.72 01-11-2009 10:58:58 1267.0093 1267.0093
528 Ignacio Navarro . 79020 FMC 09 M 264373.12 01-11-2009 10:58:42 1266.7615 1266.7615
529 Juan Fco. Arias . 80012 FMC 09 H 264520.62 01-11-2009 10:59:01 1265.5480 1265.5480
530 Juan Fco. Arias . 80072 FMC 09 H 264520.62 01-11-2009 10:59:01 1265.5480 1265.5480
531 Sergio Aceves . 74706 FMC 09 M 264578.06 01-11-2009 10:59:06 1265.3183 1265.3183
532 Manuel Aceves . 75618 FMC 09 H 264399.53 01-11-2009 10:59:01 1264.9686 1264.9686
533 Jose A. Paredes . 134695 FMC 09 H 264078.72 01-11-2009 10:58:49 1264.6439 1264.6439
534 Jose A. Paredes . 74014 FMC 09 H 264078.72 01-11-2009 10:58:49 1264.6439 1264.6439
535 Ruben De La Torre . 75729 FMC 09 H 264441.54 01-11-2009 10:59:09 1264.3631 1264.3631
536 Fco. Javier Aceves . 84156 FMC 09 M 264632.95 01-11-2009 10:59:19 1264.2708 1264.2708
537 Juan Fco. Arias . 81331 FMC 09 H 264520.62 01-11-2009 10:59:15 1264.1368 1264.1368
538 Jose Carlos y Lalo . 80094 FMC 09 H 264416.48 01-11-2009 10:59:17 1263.4378 1263.4378
539 Enrique Jimenez . 74994 FMC 09 H 264342.03 01-11-2009 10:59:16 1263.1827 1263.1827
540 Palomar San Pedro . 83647 FMC 09 H 264387.59 01-11-2009 10:59:19 1263.0986 1263.0986
541 Jose A. Paredes . 74075 FMC 09 H 264078.72 01-11-2009 10:59:06 1262.9303 1262.9303
542 Juan Carlos Aceves . 75971 FMC 09 M 264575.11 01-11-2009 10:59:42 1261.6839 1261.6839
543 Juan Carlos Aceves . 75944 FMC 09 M 264575.11 01-11-2009 10:59:42 1261.6839 1261.6839
544 Ignacio Navarro . 79085 FMC 09 H 264373.12 01-11-2009 10:59:37 1261.2218 1261.2218
545 Enrique Jimenez . 83576 FMC 09 H 264342.03 01-11-2009 10:59:36 1261.1738 1261.1738
546 Mina Vieja . 74514 FMC 09 H 264297.95 01-11-2009 10:59:35 1261.0638 1261.0638
547 PALOMAR GERO . 74631 FMC 09 H 264568.25 01-11-2009 10:59:53 1260.5491 1260.5491
548 Raul Ascencio . 77759 FMC 09 H 264720.9 01-11-2009 11:00:01 1260.4757 1260.4757
549 Ruben De La Torre . 75706 FMC 09 H 264441.54 01-11-2009 10:59:51 1260.1455 1260.1455
550 Jorge Casillas . 20068 FMC 09 H 264459.18 01-11-2009 10:59:53 1260.0294 1260.0294
551 Manuel Aceves . 75671 FMC 09 H 264399.53 01-11-2009 11:00:09 1258.1467 1258.1467
552 Ignacio Navarro . 79154 FMC 09 M 264373.12 01-11-2009 11:00:15 1257.4227 1257.4227
553 Palomar San Pedro . 83669 FMC 09 H 264387.59 01-11-2009 11:00:17 1257.2922 1257.2922
554 Fco. Javier Aceves . 84180 FMC 09 M 264632.95 01-11-2009 11:00:39 1256.2685 1256.2685
555 Miguel Gonzalez . 75384 FMC 09 H 264288.71 01-11-2009 11:00:25 1256.0256 1256.0256
556 Miguel Gonzalez . 75308 FMC 09 H 264288.71 01-11-2009 11:00:31 1255.4289 1255.4289
557 Ruben De La Torre . 75719 FMC 09 H 264441.54 01-11-2009 11:00:41 1255.1612 1255.1612
558 L Ernesto Castellano . 75153 FMC 09 H 264744.18 01-11-2009 11:01:07 1254.0184 1254.0184
559 Juan Fco. Arias . 81371 FMC 09 H 264520.62 01-11-2009 11:00:57 1253.9494 1253.9494
560 Jose A. Paredes . 74016 FMC 09 H 264078.72 01-11-2009 11:00:38 1253.7366 1253.7366
561 Juan Fco. Arias . 80001 FMC 09 H 264520.62 01-11-2009 11:01:01 1253.5532 1253.5532
562 L Ernesto Castellano . 84408 FMC 09 H 264744.18 01-11-2009 11:01:27 1252.0415 1252.0415
563 Fco. Javier Aceves . 84115 FMC 09 H 264632.95 01-11-2009 11:01:33 1250.9239 1250.9239
564 Cleofas Casillas . 76113 FMC 09 H 264317.16 01-11-2009 11:01:23 1250.4163 1250.4163
565 Manuel Aceves . 75633 FMC 09 M 264399.53 01-11-2009 11:01:37 1249.4268 1249.4268
566 L Ernesto Castellano . 75137 FMC 09 H 264744.18 01-11-2009 11:02:00 1248.7933 1248.7933
567 Juan Carlos Aceves . 84277 FMC 09 M 264575.11 01-11-2009 11:01:57 1248.2902 1248.2902
568 Juan Carlos Aceves . 84276 FMC 09 M 264575.11 01-11-2009 11:01:57 1248.2902 1248.2902
569 Enrique Jimenez . 74919 FMC 09 H 264342.03 01-11-2009 11:01:47 1248.1720 1248.1720
570 PALOMAR GERO . 74612 FMC 09 H 264568.25 01-11-2009 11:01:59 1248.0616 1248.0616
571 Ignacio Barba . 75451 FMC 09 M 264575.24 01-11-2009 11:02:19 1246.1350 1246.1350
572 Jorge Casillas . 77011 FMC 09 H 264459.18 01-11-2009 11:02:19 1245.5884 1245.5884
573 Sergio Aceves . 74708 FMC 09 M 264578.06 01-11-2009 11:02:27 1245.3663 1245.3663
574 Juan Carlos Aceves . 84272 FMC 09 M 264575.11 01-11-2009 11:02:42 1243.8886 1243.8886
575 Raul Ascencio . 77707 FMC 09 H 264720.9 01-11-2009 11:02:56 1243.2102 1243.2102
576 Juan Fco. Arias . 80048 FMC 09 H 264520.62 01-11-2009 11:02:50 1242.8533 1242.8533
577 Jose Carlos y Lalo . 85231 FMC 09 H 264416.48 01-11-2009 11:02:46 1242.7533 1242.7533
578 Miguel Gonzalez . 75590 FMC 09 H 264288.71 01-11-2009 11:03:04 1240.4038 1240.4038
579 Palomar San Pedro . 83648 FMC 09 H 264387.59 01-11-2009 11:03:10 1240.2858 1240.2858
580 Manuel Aceves . 75668 FMC 09 H 264399.53 01-11-2009 11:03:13 1240.0509 1240.0509
581 Ruben De La Torre . 75771 FMC 09 H 264441.54 01-11-2009 11:03:18 1239.7634 1239.7634
582 Mina Vieja . 74575 FMC 09 H 264297.95 01-11-2009 11:03:36 1237.3500 1237.3500
583 Juan Fco. Arias . 81306 FMC 09 H 264520.62 01-11-2009 11:04:01 1235.9814 1235.9814
584 Ruben De La Torre . 75718 FMC 09 M 264441.54 01-11-2009 11:04:26 1233.2110 1233.2110
585 Miguel Gonzalez . 75377 FMC 09 H 264288.71 01-11-2009 11:04:34 1231.7324 1231.7324
586 Jose Carlos y Lalo . 76471 FMC 09 M 264416.48 01-11-2009 11:04:54 1230.4164 1230.4164
587 Ignacio Barba . 75420 FMC 09 M 264575.24 01-11-2009 11:05:06 1230.0104 1230.0104
588 Juan Carlos Aceves . 84264 FMC 09 M 264575.11 01-11-2009 11:05:23 1228.3918 1228.3918
589 Manuel Aceves . 75614 FMC 09 H 264399.53 01-11-2009 11:05:42 1225.7744 1225.7744
590 Manuel Aceves . 133525 FMC 09 M 264399.53 01-11-2009 11:05:46 1225.3956 1225.3956
591 Sergio Aceves . 74716 FMC 09 H 264578.06 01-11-2009 11:05:59 1224.9929 1224.9929
592 Jose A. Paredes . 74034 FMC 09 H 264078.72 01-11-2009 11:05:36 1224.8549 1224.8549
593 Juan Carlos Aceves . 75903 FMC 09 M 264575.11 01-11-2009 11:06:01 1224.7903 1224.7903
594 Sergio Aceves . 74703 FMC 09 M 264578.06 01-11-2009 11:06:04 1224.5205 1224.5205
595 Manuel Aceves . 75690 FMC 09 H 264399.53 01-11-2009 11:06:10 1223.1281 1223.1281
596 Manuel Aceves . 80205 FMC 09 M 264399.53 01-11-2009 11:06:15 1222.6568 1222.6568
597 Manuel Aceves . 75234 FMC 09 H 264399.53 01-11-2009 11:06:16 1222.5626 1222.5626
598 Raul Ascencio . 77754 FMC 09 H 264720.9 01-11-2009 11:06:33 1222.4470 1222.4470
599 Jose A. Paredes . 74117 FMC 09 H 264078.72 01-11-2009 11:06:05 1222.1152 1222.1152
600 Ignacio Navarro . 79173 FMC 09 M 264373.12 01-11-2009 11:06:38 1220.3714 1220.3714
601 Raul Ascencio . 77758 FMC 09 H 264720.9 01-11-2009 11:06:58 1220.0994 1220.0994
602 Miguel Gonzalez . 75548 FMC 09 H 264288.71 01-11-2009 11:06:41 1219.7002 1219.7002
603 Enrique Jimenez . 74901 FMC 09 H 264342.03 01-11-2009 11:07:05 1217.6984 1217.6984
604 Fco. Javier Aceves . 84182 FMC 09 M 264632.95 01-11-2009 11:07:21 1217.5429 1217.5429
605 Jose A. Paredes . 74159 FMC 09 H 264078.72 01-11-2009 11:07:00 1216.9526 1216.9526
606 Jorge Casillas . 77014 FMC 09 H 264459.18 01-11-2009 11:07:19 1216.9300 1216.9300
607 Fco. Javier Aceves . 84177 FMC 09 M 264632.95 01-11-2009 11:07:39 1215.8647 1215.8647
608 Palomar San Pedro . 83630 FMC 09 M 264387.59 01-11-2009 11:07:43 1214.3654 1214.3654
609 Ignacio Barba . 75467 FMC 09 M 264575.24 01-11-2009 11:08:23 1211.5175 1211.5175
610 Ignacio Barba . 80051 FMC 09 H 264575.24 01-11-2009 11:08:30 1210.8707 1210.8707
611 Raul Ascencio . 77757 FMC 09 H 264720.9 01-11-2009 11:08:51 1209.5997 1209.5997
612 Ignacio Barba . 75465 FMC 09 H 264575.24 01-11-2009 11:08:44 1209.5790 1209.5790
613 L Ernesto Castellano . 75196 FMC 09 H 264744.18 01-11-2009 11:08:54 1209.4298 1209.4298
614 L Ernesto Castellano . 80136 FMC 09 H 264744.18 01-11-2009 11:08:59 1208.9695 1208.9695
615 Mina Vieja . 74499 FMC 09 M 264297.95 01-11-2009 11:08:39 1208.7718 1208.7718
616 L Ernesto Castellano . 80121 FMC 09 H 264744.18 01-11-2009 11:09:04 1208.5096 1208.5096
617 Manuel Aceves . 133533 FMC 09 H 264399.53 01-11-2009 11:08:47 1208.4994 1208.4994
618 Enrique Jimenez . 74990 FMC 09 H 264342.03 01-11-2009 11:09:02 1206.8575 1206.8575
619 Adrian Casillas . 78157 FMC 09 H 264762.72 01-11-2009 11:09:45 1204.8360 1204.8360
620 Ignacio Navarro . 79195 FMC 09 M 264373.12 01-11-2009 11:09:39 1203.6108 1203.6108
621 Ignacio Barba . 75415 FMC 09 H 264575.24 01-11-2009 11:09:56 1202.9793 1202.9793
622 Ignacio Navarro . 79146 FMC 09 H 264373.12 01-11-2009 11:10:30 1198.9711 1198.9711
623 Ruben De La Torre . 75754 FMC 09 M 264441.54 01-11-2009 11:10:58 1196.7486 1196.7486
624 Manuel Aceves . 80235 FMC 09 H 264399.53 01-11-2009 11:10:57 1196.6487 1196.6487
625 Ignacio Navarro . 79153 FMC 09 H 264373.12 01-11-2009 11:10:56 1196.6194 1196.6194
626 Juan Carlos Aceves . 75925 FMC 09 H 264575.11 01-11-2009 11:11:11 1196.1801 1196.1801
627 Sergio Aceves . 74752 FMC 09 H 264578.06 01-11-2009 11:11:12 1196.1033 1196.1033
628 Manuel Aceves . 133527 FMC 09 H 264399.53 01-11-2009 11:11:09 1195.5665 1195.5665
629 Sergio Aceves . 74755 FMC 09 H 264578.06 01-11-2009 11:11:20 1195.3828 1195.3828
630 PALOMAR GERO . 74662 FMC 09 H 264568.25 01-11-2009 11:11:23 1195.0685 1195.0685
631 PALOMAR GERO . 74622 FMC 09 H 264568.25 01-11-2009 11:11:25 1194.8886 1194.8886
632 Enrique Jimenez . 74948 FMC 09 H 264342.03 01-11-2009 11:11:14 1194.8562 1194.8562
633 Jose A. Paredes . 74170 FMC 09 H 264078.72 01-11-2009 11:11:06 1194.3859 1194.3859
634 Raul Ascencio . 80256 FMC 09 H 264720.9 01-11-2009 11:11:55 1192.8843 1192.8843
635 L Ernesto Castellano . 75132 FMC 09 H 264744.18 01-11-2009 11:12:00 1192.5414 1192.5414
636 Mina Vieja . 74497 FMC 09 H 264297.95 01-11-2009 11:11:38 1192.5009 1192.5009
637 Ignacio Navarro . 79010 FMC 09 H 264373.12 01-11-2009 11:12:14 1189.6196 1189.6196
638 Raul Ascencio . 77786 FMC 09 H 264720.9 01-11-2009 11:12:39 1188.9553 1188.9553
639 Mina Vieja . 74478 FMC 09 H 264297.95 01-11-2009 11:12:18 1188.9247 1188.9247
640 Ruben De La Torre . 75713 FMC 09 H 264441.54 01-11-2009 11:12:36 1187.9674 1187.9674
641 Jose A. Paredes . 80231 FMC 09 H 264078.72 01-11-2009 11:12:23 1187.4933 1187.4933
642 Miguel Gonzalez . 75534 FMC 09 H 264288.71 01-11-2009 11:13:24 1183.0291 1183.0291
643 Fco. Javier Aceves . 84239 FMC 09 M 264632.95 01-11-2009 11:13:42 1182.9814 1182.9814
644 Fco. Javier Aceves . 84114 FMC 09 M 264632.95 01-11-2009 11:13:42 1182.9814 1182.9814
645 Palomar San Pedro . 83656 FMC 09 M 264387.59 01-11-2009 11:13:33 1182.6777 1182.6777
646 Jose A. Paredes . 74123 FMC 09 H 264078.72 01-11-2009 11:13:20 1182.4420 1182.4420
647 L Ernesto Castellano . 80124 FMC 09 H 264744.18 01-11-2009 11:14:12 1180.8393 1180.8393
648 PALOMAR GERO . 74673 FMC 09 H 264568.25 01-11-2009 11:14:09 1180.3179 1180.3179
649 PALOMAR GERO . 74625 FMC 09 H 264568.25 01-11-2009 11:14:13 1179.9669 1179.9669
650 Manuel Aceves . 75684 FMC 09 H 264399.53 01-11-2009 11:15:29 1172.5901 1172.5901
651 Juan Carlos Aceves . 75972 FMC 09 M 264575.11 01-11-2009 11:15:46 1171.8962 1171.8962
652 Juan Carlos Aceves . 133932 FMC 09 H 264575.11 01-11-2009 11:15:49 1171.6368 1171.6368
653 L Ernesto Castellano . 75193 FMC 09 H 264744.18 01-11-2009 11:16:14 1170.2262 1170.2262
654 Ignacio Navarro . 79062 FMC 09 M 264373.12 01-11-2009 11:16:12 1168.7583 1168.7583
655 Palomar San Pedro . 83625 FMC 09 H 264387.59 01-11-2009 11:16:16 1168.4779 1168.4779
656 Manuel Aceves . 75624 FMC 09 H 264399.53 01-11-2009 11:16:18 1168.3585 1168.3585
657 Fco. Javier Aceves . 84116 FMC 09 M 264632.95 01-11-2009 11:16:32 1168.1855 1168.1855
658 Mina Vieja . 80073 FMC 09 M 264297.95 01-11-2009 11:16:15 1168.1677 1168.1677
659 PALOMAR GERO . 80066 FMC 09 H 264568.25 01-11-2009 11:16:31 1167.9858 1167.9858
660 Ignacio Barba . 75424 FMC 09 M 264575.24 01-11-2009 11:16:48 1166.5575 1166.5575
661 Cleofas Casillas . 80314 FMC 09 H 264317.16 01-11-2009 11:16:40 1166.1051 1166.1051
662 Miguel Gonzalez . 75533 FMC 09 H 264288.71 01-11-2009 11:16:46 1165.4654 1165.4654
663 Miguel Gonzalez . 75505 FMC 09 H 264288.71 01-11-2009 11:17:08 1163.5840 1163.5840
664 Juan Fco. Arias . 81316 FMC 09 H 264520.62 01-11-2009 11:18:00 1160.1782 1160.1782
665 Enrique Jimenez . 74980 FMC 09 H 264342.03 01-11-2009 11:18:08 1158.7173 1158.7173
666 Ruben De La Torre . 75751 FMC 09 M 264441.54 01-11-2009 11:18:39 1156.5342 1156.5342
667 PALOMAR GERO . 74667 FMC 09 H 264568.25 01-11-2009 11:19:20 1153.6406 1153.6406
668 Sergio Aceves . 80336 FMC 09 M 264578.06 01-11-2009 11:19:41 1151.9254 1151.9254
669 Ruben De La Torre . 75799 FMC 09 H 264441.54 01-11-2009 11:19:53 1150.3293 1150.3293
670 Ruben De La Torre . 75736 FMC 09 H 264441.54 01-11-2009 11:19:53 1150.3293 1150.3293
671 L Ernesto Castellano . 133934 FMC 09 H 264744.18 01-11-2009 11:20:29 1148.6478 1148.6478
672 Raul Ascencio . 75211 FMC 09 H 264720.9 01-11-2009 11:20:28 1148.6299 1148.6299
673 PALOMAR GERO . 74679 FMC 09 H 264568.25 01-11-2009 11:20:31 1147.7185 1147.7185
674 Juan Carlos Aceves . 84270 FMC 09 M 264575.11 01-11-2009 11:20:35 1147.4165 1147.4165
675 Sergio Aceves . 80332 FMC 09 M 264578.06 01-11-2009 11:20:46 1146.5177 1146.5177
676 Enrique Jimenez . 74996 FMC 09 H 264342.03 01-11-2009 11:20:43 1145.7431 1145.7431
677 Palomar San Pedro . 83635 FMC 09 H 264387.59 01-11-2009 11:20:58 1144.7002 1144.7002
678 Palomar San Pedro . 83676 FMC 09 H 264387.59 01-11-2009 11:20:59 1144.6176 1144.6176
679 Ignacio Navarro . 79110 FMC 09 M 264373.12 01-11-2009 11:21:11 1143.5648 1143.5648
680 Miguel Gonzalez . 75347 FMC 09 H 264288.71 01-11-2009 11:21:07 1143.5294 1143.5294
681 Ignacio Navarro . 75263 FMC 09 H 264373.12 01-11-2009 11:21:12 1143.4824 1143.4824
682 Jose Carlos y Lalo . 83195 FMC 09 H 264416.48 01-11-2009 11:21:25 1142.5991 1142.5991
683 Ignacio Barba . 75430 FMC 09 M 264575.24 01-11-2009 11:21:36 1142.3801 1142.3801
684 Raul Ascencio . 133678 FMC 09 H 264720.9 01-11-2009 11:21:49 1141.9408 1141.9408
685 Enrique Jimenez . 74935 FMC 09 H 264342.03 01-11-2009 11:21:30 1141.8662 1141.8662
686 Miguel Gonzalez . 75389 FMC 09 H 264288.71 01-11-2009 11:21:34 1141.3072 1141.3072
687 Jose Carlos y Lalo . 80250 FMC 09 H 264416.48 01-11-2009 11:21:44 1141.0377 1141.0377
688 Jose Carlos y Lalo . 76333 FMC 09 H 264416.48 01-11-2009 11:22:17 1138.3360 1138.3360
689 Juan Carlos Aceves . 75930 FMC 09 M 264575.11 01-11-2009 11:22:44 1136.8166 1136.8166
690 Adrian Casillas . 78027 FMC 09 H 264762.72 01-11-2009 11:23:24 1134.3733 1134.3733
691 Miguel Gonzalez . 75369 FMC 09 H 264288.71 01-11-2009 11:23:43 1130.8081 1130.8081
692 Miguel Gonzalez . 75537 FMC 09 H 264288.71 01-11-2009 11:23:45 1130.6469 1130.6469
693 Adrian Casillas . 78005 FMC 09 H 264762.72 01-11-2009 11:24:33 1128.8114 1128.8114
694 Miguel Gonzalez . 75539 FMC 09 M 264288.71 01-11-2009 11:24:29 1127.1109 1127.1109
695 Ignacio Navarro . 75262 FMC 09 H 264373.12 01-11-2009 11:24:45 1126.1901 1126.1901
696 Manuel Aceves . 80209 FMC 09 H 264399.53 01-11-2009 11:25:01 1125.0246 1125.0246
697 Juan Fco. Arias . 81308 FMC 09 H 264520.62 01-11-2009 11:25:16 1124.3438 1124.3438
698 Mina Vieja . 74404 FMC 09 H 264297.95 01-11-2009 11:25:05 1124.2734 1124.2734
699 Ignacio Navarro . 79082 FMC 09 M 264373.12 01-11-2009 11:25:16 1123.7169 1123.7169
700 Ruben De La Torre . 75783 FMC 09 M 264441.54 01-11-2009 11:25:34 1122.5762 1122.5762
701 Jorge Casillas . 77065 FMC 09 H 264459.18 01-11-2009 11:25:37 1122.4129 1122.4129
702 Ignacio Barba . 75428 FMC 09 M 264575.24 01-11-2009 11:25:47 1122.1117 1122.1117
703 Ignacio Barba . 75401 FMC 09 M 264575.24 01-11-2009 11:25:49 1121.9531 1121.9531
704 Juan Fco. Arias . 80352 FMC 09 H 264520.62 01-11-2009 11:26:07 1120.2963 1120.2963
705 Enrique Jimenez . 74365 FMC 09 H 264342.03 01-11-2009 11:26:25 1118.1193 1118.1193
706 Ignacio Navarro . 79191 FMC 09 H 264373.12 01-11-2009 11:26:27 1118.0931 1118.0931
707 Ignacio Barba . 80117 FMC 09 M 264575.24 01-11-2009 11:26:47 1117.3727 1117.3727
708 Juan Carlos Aceves . 75952 FMC 09 M 264575.11 01-11-2009 11:26:51 1117.0577 1117.0577
709 Palomar San Pedro . 83628 FMC 09 M 264387.59 01-11-2009 11:27:18 1114.1491 1114.1491
710 PALOMAR GERO . 74614 FMC 09 H 264568.25 01-11-2009 11:27:59 1111.7092 1111.7092
711 Fco. Javier Aceves . 80324 FMC 09 H 264632.95 01-11-2009 11:28:04 1111.5918 1111.5918
712 Juan Fco. Arias . 81325 FMC 09 H 264520.62 01-11-2009 11:28:33 1108.8687 1108.8687
713 Juan Fco. Arias . 81303 FMC 09 H 264520.62 01-11-2009 11:28:43 1108.0945 1108.0945
714 Raul Ascencio . 77781 FMC 09 H 264720.9 01-11-2009 11:29:14 1106.5385 1106.5385
715 Enrique Jimenez . 74904 FMC 09 H 264342.03 01-11-2009 11:30:17 1100.1264 1100.1264
716 L Ernesto Castellano . 80126 FMC 09 H 264744.18 01-11-2009 11:30:56 1098.8275 1098.8275
717 Jose Carlos y Lalo . 80097 FMC 09 H 264416.48 01-11-2009 11:30:41 1098.6074 1098.6074
718 Raul Ascencio . 77787 FMC 09 H 264720.9 01-11-2009 11:32:26 1091.9328 1091.9328
719 L Ernesto Castellano . 80346 FMC 09 H 264744.18 01-11-2009 11:32:38 1091.1286 1091.1286
720 Juan Fco. Arias . 80350 FMC 09 H 264520.62 01-11-2009 11:33:04 1088.2637 1088.2637
721 Jose A. Paredes . 74054 FMC 09 H 264078.72 01-11-2009 11:32:51 1087.4149 1087.4149
722 Miguel Gonzalez . 75394 FMC 09 H 264288.71 01-11-2009 11:33:12 1086.7134 1086.7134
723 Juan Carlos Aceves . 75967 FMC 09 M 264575.11 01-11-2009 11:33:45 1085.4363 1085.4363
724 Ruben De La Torre . 134823 FMC 09 H 264441.54 01-11-2009 11:34:00 1083.7768 1083.7768
725 Raul Ascencio . 77767 FMC 09 H 264720.9 01-11-2009 11:34:16 1083.7373 1083.7373
726 Jose Carlos y Lalo . 80251 FMC 09 M 264416.48 01-11-2009 11:34:27 1081.6792 1081.6792
727 Juan Fco. Arias . 80008 FMC 09 H 264520.62 01-11-2009 11:37:20 1069.4904 1069.4904
728 Enrique Jimenez . 83577 FMC 09 H 264342.03 01-11-2009 11:37:30 1068.0486 1068.0486
729 L Ernesto Castellano . 75226 FMC 09 H 264744.18 01-11-2009 11:38:34 1065.0832 1065.0832
730 Ignacio Navarro . 79121 FMC 09 M 264373.12 01-11-2009 11:38:30 1063.8757 1063.8757
731 Mina Vieja . 74442 FMC 09 H 264297.95 01-11-2009 11:38:43 1062.6467 1062.6467
732 Enrique Jimenez . 74974 FMC 09 H 264342.03 01-11-2009 11:38:52 1062.1834 1062.1834
733 Ignacio Navarro . 79042 FMC 09 M 264373.12 01-11-2009 11:39:04 1061.4552 1061.4552
734 Ignacio Navarro . 80103 FMC 09 M 264373.12 01-11-2009 11:39:07 1061.2422 1061.2422
735 Jose A. Paredes . 74092 FMC 09 H 264078.72 01-11-2009 11:38:55 1060.9122 1060.9122
736 Miguel Gonzalez . 75521 FMC 09 M 264288.71 01-11-2009 11:39:45 1058.2131 1058.2131
737 Juan Carlos Aceves . 75982 FMC 09 M 264575.11 01-11-2009 11:41:49 1050.6656 1050.6656
738 Juan Carlos Aceves . 74800 FMC 09 M 264575.11 01-11-2009 11:41:52 1050.4570 1050.4570
739 Miguel Gonzalez . 75506 FMC 09 H 264288.71 01-11-2009 11:42:21 1047.3101 1047.3101
740 PALOMAR GERO . 74652 FMC 09 H 264568.25 01-11-2009 11:42:48 1046.5516 1046.5516
741 L Ernesto Castellano . 80132 FMC 09 H 264744.18 01-11-2009 11:43:26 1044.6305 1044.6305
742 Manuel Aceves . 75697 FMC 09 H 264399.53 01-11-2009 11:43:46 1041.9002 1041.9002
743 Palomar San Pedro . 83683 FMC 09 M 264387.59 01-11-2009 11:43:54 1041.3060 1041.3060
744 Cleofas Casillas . 80161 FMC 09 H 264317.16 01-11-2009 11:44:14 1039.6637 1039.6637
745 Jose A. Paredes . 74085 FMC 09 H 264078.72 01-11-2009 11:44:06 1039.2708 1039.2708
746 Ignacio Navarro . 79112 FMC 09 M 264373.12 01-11-2009 11:45:25 1035.0660 1035.0660
747 Ruben De La Torre . 75743 FMC 09 M 264441.54 01-11-2009 11:45:37 1034.5239 1034.5239
748 Ignacio Barba . 75441 FMC 09 M 264575.24 01-11-2009 11:45:56 1033.7662 1033.7662
749 L Ernesto Castellano . 75243 FMC 09 H 264744.18 01-11-2009 11:46:07 1033.6859 1033.6859
750 L Ernesto Castellano . 75224 FMC 09 H 264744.18 01-11-2009 11:46:23 1032.6107 1032.6107
751 PALOMAR GERO . 74634 FMC 09 H 264568.25 01-11-2009 11:46:42 1030.6515 1030.6515
752 Sergio Aceves . 80060 FMC 09 M 264578.06 01-11-2009 11:46:53 1029.9542 1029.9542
753 Ruben De La Torre . 13109 FMC 09 M 264441.54 01-11-2009 11:46:58 1029.0889 1029.0889
754 Enrique Jimenez . 74366 FMC 09 H 264342.03 01-11-2009 11:47:30 1026.5710 1026.5710
755 Fco. Javier Aceves . 84107 FMC 09 M 264632.95 01-11-2009 11:48:00 1025.7091 1025.7091
756 Jose A. Paredes . 74157 FMC 09 H 264078.72 01-11-2009 11:47:38 1025.0177 1025.0177
757 Fco. Javier Aceves . 84280 FMC 09 H 264632.95 01-11-2009 11:48:13 1024.8484 1024.8484
758 Ignacio Navarro . 79104 FMC 09 H 264373.12 01-11-2009 11:48:18 1023.5119 1023.5119
759 Ruben De La Torre . 75788 FMC 09 M 264441.54 01-11-2009 11:48:38 1022.4573 1022.4573
760 Mina Vieja . 80029 FMC 09 H 264297.95 01-11-2009 11:48:38 1021.9021 1021.9021
761 PALOMAR GERO . 74618 FMC 09 H 264568.25 01-11-2009 11:48:59 1021.5648 1021.5648
762 Enrique Jimenez . 75000 FMC 09 H 264342.03 01-11-2009 11:48:52 1021.1513 1021.1513
763 Miguel Gonzalez . 75592 FMC 09 H 264288.71 01-11-2009 11:48:56 1020.6825 1020.6825
764 Miguel Gonzalez . 75554 FMC 09 H 264288.71 01-11-2009 11:48:57 1020.6168 1020.6168
765 Enrique Jimenez . 74966 FMC 09 H 264342.03 01-11-2009 11:49:19 1019.3793 1019.3793
766 Ignacio Barba . 80049 FMC 09 H 264575.24 01-11-2009 11:51:51 1010.4076 1010.4076
767 Adrian Casillas . 78122 FMC 09 H 264762.72 01-11-2009 11:52:31 1008.5559 1008.5559
768 Enrique Jimenez . 74922 FMC 09 H 264342.03 01-11-2009 11:52:47 1005.9315 1005.9315
769 Ignacio Barba . 75429 FMC 09 H 264575.24 01-11-2009 11:53:49 1002.8754 1002.8754
770 Jorge Casillas . 77218 FMC 09 H 264459.18 01-11-2009 11:54:27 1000.0347 1000.0347
771 Ignacio Navarro . 79013 FMC 09 H 264373.12 01-11-2009 11:54:33 999.3314 999.3314
772 PALOMAR GERO . 74633 FMC 09 H 264568.25 01-11-2009 11:55:15 997.4298 997.4298
773 Manuel Aceves . 80207 FMC 09 M 264399.53 01-11-2009 11:55:07 997.2950 997.2950
774 Jose Carlos y Lalo . 80090 FMC 09 M 264416.48 01-11-2009 11:55:19 996.6071 996.6071
775 Ignacio Barba . 133691 FMC 09 M 264575.24 01-11-2009 11:55:52 995.1426 995.1426
776 Jose A. Paredes . 74063 FMC 09 H 264078.72 01-11-2009 11:55:48 993.5242 993.5242
777 Manuel Aceves . 75626 FMC 09 H 264399.53 01-11-2009 11:56:45 991.1885 991.1885
778 Cleofas Casillas . 76411 FMC 09 H 264317.16 01-11-2009 11:57:33 987.9169 987.9169
779 Jose A. Paredes . 74111 FMC 09 H 264078.72 01-11-2009 11:57:35 986.9027 986.9027
780 Miguel Gonzalez . 76706 FMC 09 H 264288.71 01-11-2009 11:58:49 983.1560 983.1560
781 Cleofas Casillas . 76207 FMC 09 H 264317.16 01-11-2009 12:00:06 978.5900 978.5900
782 Miguel Gonzalez . 75512 FMC 09 H 264288.71 01-11-2009 12:00:25 977.3388 977.3388
783 Juan Carlos Aceves . 75958 FMC 09 M 264575.11 01-11-2009 12:01:32 974.3743 974.3743
784 Palomar San Pedro . 83650 FMC 09 H 264387.59 01-11-2009 12:02:21 970.7641 970.7641
785 Manuel Aceves . 75681 FMC 09 M 264399.53 01-11-2009 12:03:57 965.1379 965.1379
786 Ruben De La Torre . 75768 FMC 09 M 264441.54 01-11-2009 12:04:33 963.1817 963.1817
787 Ignacio Barba . 80022 FMC 09 H 264575.24 01-11-2009 12:06:25 957.1610 957.1610
788 Jose A. Paredes . 77693 FMC 09 H 264078.72 01-11-2009 12:05:57 956.9803 956.9803
789 Manuel Aceves . 75682 FMC 09 H 264399.53 01-11-2009 12:08:13 950.3368 950.3368
790 L Ernesto Castellano . 75140 FMC 09 H 264744.18 01-11-2009 12:11:52 939.2532 939.2532
791 Ignacio Navarro . 79032 FMC 09 H 264373.12 01-11-2009 12:13:44 931.7662 931.7662
792 Manuel Aceves . 80241 FMC 09 H 264399.53 01-11-2009 12:13:51 931.4762 931.4762
793 Jose Carlos y Lalo . 80311 FMC 09 M 264416.48 01-11-2009 12:16:55 921.5794 921.5794
794 Ignacio Barba . 75468 FMC 09 H 264575.24 01-11-2009 12:17:18 920.9023 920.9023
795 Fco. Javier Aceves . 84191 FMC 09 H 264632.95 01-11-2009 12:18:21 917.7491 917.7491
796 Adrian Casillas . 78036 FMC 09 H 264762.72 01-11-2009 12:20:29 911.4558 911.4558
797 Raul Ascencio . 80261 FMC 09 H 264720.9 01-11-2009 12:23:12 902.8680 902.8680
798 Palomar San Pedro . 83671 FMC 09 H 264387.59 01-11-2009 12:23:37 900.4516 900.4516
799 Ignacio Navarro . 79087 FMC 09 H 264373.12 01-11-2009 12:27:32 888.5496 888.5496
800 Ignacio Barba . 77737 FMC 09 M 264575.24 01-11-2009 12:29:05 884.6205 884.6205
801 Juan Fco. Arias . 80309 FMC 09 H 264520.62 01-11-2009 12:29:18 883.7976 883.7976
802 Ignacio Barba . 75410 FMC 09 H 264575.24 01-11-2009 12:32:45 873.9067 873.9067
803 Mina Vieja . 74473 FMC 09 H 264297.95 01-11-2009 12:34:29 868.0211 868.0211
804 Mina Vieja . 74459 FMC 09 M 264297.95 01-11-2009 12:35:28 865.2268 865.2268
805 Fco. Javier Aceves . 84249 FMC 09 M 264632.95 01-11-2009 12:36:04 864.6252 864.6252
806 Cleofas Casillas . 76440 FMC 09 H 264317.16 01-11-2009 12:40:38 850.8976 850.8976
807 Jose A. Paredes . 74021 FMC 09 H 264078.72 01-11-2009 12:41:13 848.5366 848.5366
808 Cleofas Casillas . 76112 FMC 09 H 264317.16 01-11-2009 12:41:56 847.3514 847.3514
809 Juan Fco. Arias . 81318 FMC 09 H 264520.62 01-11-2009 12:45:06 839.4815 839.4815
810 Palomar San Pedro . 83672 FMC 09 H 264387.59 01-11-2009 13:03:06 793.7184 793.7184
811 Jose Carlos y Lalo . 76492 FMC 09 H 264416.48 01-11-2009 13:03:31 792.8134 792.8134
812 Juan Carlos Aceves . 133928 FMC 09 H 264575.11 01-11-2009 13:11:24 774.9710 774.9710
813 Mina Vieja . 74423 FMC 09 M 264297.95 01-11-2009 13:28:23 737.4728 737.4728